Time,TemperatureF,DewpointF,PressureIn,WindDirection,WindDirectionDegrees,WindSpeedMPH,WindSpeedGustMPH,Humidity,HourlyPrecipIn,Conditions,Clouds,dailyrainin,SolarRadiationWatts/m^2,SoftwareType,DateUTC
2013-09-01 00:00:00,89.6,62.3,29.32,SSE,162,6.1,6.5,40,-99.99,,,0.00,0,rob ver 1A,2013-09-01 07:00:00,
2013-09-01 00:01:00,91.7,58.9,29.26,South,191,8.0,9.5,33,-99.99,,,0.00,0,rob ver 1B,2013-09-01 07:01:00,
2013-09-01 00:02:00,91.7,58.9,29.26,South,191,7.8,9.6,33,-99.99,,,0.00,0,rob ver 1B,2013-09-01 07:02:00,
2013-09-01 00:03:00,91.7,59.0,29.26,South,191,8.8,11.2,33,-99.99,,,0.00,0,rob ver 1B,2013-09-01 07:03:00,
2013-09-01 00:04:00,91.7,59.0,29.26,SSW,193,9.2,11.5,33,-99.99,,,0.00,0,rob ver 1B,2013-09-01 07:04:00,
2013-09-01 00:05:00,89.5,62.3,29.32,SSE,160,3.8,4.7,40,-99.99,,,0.00,0,rob ver 1A,2013-09-01 07:05:00,
2013-09-01 00:06:00,91.6,59.1,29.26,SSW,193,9.2,11.4,33,-99.99,,,0.00,0,rob ver 1B,2013-09-01 07:06:00,
2013-09-01 00:07:00,91.6,59.1,29.26,SSW,193,8.7,10.3,33,-99.99,,,0.00,0,rob ver 1B,2013-09-01 07:07:00,
2013-09-01 00:08:00,91.6,59.1,29.26,South,191,9.5,12.1,33,-99.99,,,0.00,0,rob ver 1B,2013-09-01 07:08:00,
2013-09-01 00:09:00,91.6,59.1,29.26,South,191,8.7,11.6,33,-99.99,,,0.00,0,rob ver 1B,2013-09-01 07:09:00,
2013-09-01 00:10:00,89.3,62.2,29.32,South,171,4.0,4.9,40,-99.99,,,0.00,0,rob ver 1A,2013-09-01 07:10:00,
2013-09-01 00:11:00,91.6,59.2,29.26,SSW,193,8.4,10.5,33,-99.99,,,0.00,0,rob ver 1B,2013-09-01 07:11:00,
2013-09-01 00:12:00,91.6,59.2,29.26,SSW,194,8.6,10.8,33,-99.99,,,0.00,0,rob ver 1B,2013-09-01 07:12:00,
2013-09-01 00:13:00,91.6,59.2,29.26,SSW,193,8.8,12.1,33,-99.99,,,0.00,0,rob ver 1B,2013-09-01 07:13:00,
2013-09-01 00:14:00,91.6,59.2,29.26,SSW,196,8.3,10.6,33,-99.99,,,0.00,0,rob ver 1B,2013-09-01 07:14:00,
2013-09-01 00:15:00,89.2,62.1,29.32,SSE,162,4.7,5.7,40,-99.99,,,0.00,0,rob ver 1A,2013-09-01 07:15:00,
2013-09-01 00:16:00,91.5,59.1,29.26,SSW,201,8.0,9.8,33,-99.99,,,0.00,0,rob ver 1B,2013-09-01 07:16:00,
2013-09-01 00:17:00,91.4,59.1,29.26,SSW,202,8.4,10.0,33,-99.99,,,0.00,0,rob ver 1B,2013-09-01 07:17:00,
2013-09-01 00:18:00,91.3,59.2,29.26,SSW,201,8.2,10.7,34,-99.99,,,0.00,0,rob ver 1B,2013-09-01 07:18:00,
2013-09-01 00:19:00,91.2,59.2,29.26,SSW,199,8.7,10.8,34,-99.99,,,0.00,0,rob ver 1B,2013-09-01 07:19:00,
2013-09-01 00:20:00,89.2,62.1,29.32,SSE,160,4.9,5.7,40,-99.99,,,0.00,0,rob ver 1A,2013-09-01 07:20:00,
2013-09-01 00:21:00,91.1,59.3,29.26,South,191,8.1,9.9,34,-99.99,,,0.00,0,rob ver 1B,2013-09-01 07:21:00,
2013-09-01 00:22:00,91.1,59.3,29.26,South,190,7.5,9.9,34,-99.99,,,0.00,0,rob ver 1B,2013-09-01 07:22:00,
2013-09-01 00:23:00,91.1,59.4,29.26,South,189,8.9,11.2,34,-99.99,,,0.00,0,rob ver 1B,2013-09-01 07:23:00,
2013-09-01 00:24:00,91.1,59.4,29.26,South,190,8.1,10.6,34,-99.99,,,0.00,0,rob ver 1B,2013-09-01 07:24:00,
2013-09-01 00:25:00,89.2,62.0,29.32,SSE,150,4.7,5.6,40,-99.99,,,0.00,0,rob ver 1A,2013-09-01 07:25:00,
2013-09-01 00:26:00,91.1,59.4,29.26,South,190,7.4,10.0,34,-99.99,,,0.00,0,rob ver 1B,2013-09-01 07:26:00,
2013-09-01 00:27:00,91.1,59.4,29.26,South,189,7.5,9.4,34,-99.99,,,0.00,0,rob ver 1B,2013-09-01 07:27:00,
2013-09-01 00:28:00,91.1,59.4,29.26,South,189,8.2,10.5,34,-99.99,,,0.00,0,rob ver 1B,2013-09-01 07:28:00,
2013-09-01 00:29:00,91.1,59.4,29.26,South,189,8.1,10.5,34,-99.99,,,0.00,0,rob ver 1B,2013-09-01 07:29:00,
2013-09-01 00:30:00,89.2,62.0,29.32,SSE,157,5.2,6.1,40,-99.99,,,0.00,0,rob ver 1A,2013-09-01 07:30:00,
2013-09-01 00:31:00,91.0,59.3,29.26,South,191,8.0,10.5,34,-99.99,,,0.00,0,rob ver 1B,2013-09-01 07:31:00,
2013-09-01 00:32:00,91.0,59.3,29.26,South,190,7.1,8.9,34,-99.99,,,0.00,0,rob ver 1B,2013-09-01 07:32:00,
2013-09-01 00:33:00,91.0,59.3,29.26,South,189,7.5,9.5,34,-99.99,,,0.00,0,rob ver 1B,2013-09-01 07:33:00,
2013-09-01 00:34:00,91.0,59.3,29.26,South,191,8.5,10.6,34,-99.99,,,0.00,0,rob ver 1B,2013-09-01 07:34:00,
2013-09-01 00:35:00,89.1,62.1,29.32,SSE,163,5.6,6.4,40,-99.99,,,0.00,0,rob ver 1A,2013-09-01 07:35:00,
2013-09-01 00:36:00,91.0,59.3,29.26,South,186,7.8,10.3,34,-99.99,,,0.00,0,rob ver 1B,2013-09-01 07:36:00,
2013-09-01 00:37:00,91.0,59.3,29.26,South,187,9.2,11.5,34,-99.99,,,0.00,0,rob ver 1B,2013-09-01 07:37:00,
2013-09-01 00:38:00,91.1,59.3,29.26,South,186,9.2,11.6,34,-99.99,,,0.00,0,rob ver 1B,2013-09-01 07:38:00,
2013-09-01 00:39:00,91.1,59.3,29.26,South,187,7.4,9.1,34,-99.99,,,0.00,0,rob ver 1B,2013-09-01 07:39:00,
2013-09-01 00:40:00,89.2,62.1,29.32,SSE,152,5.5,6.3,40,-99.99,,,0.00,0,rob ver 1A,2013-09-01 07:40:00,
2013-09-01 00:41:00,91.0,59.3,29.26,South,188,8.7,11.7,34,-99.99,,,0.00,0,rob ver 1B,2013-09-01 07:41:00,
2013-09-01 00:42:00,91.0,59.4,29.26,South,187,7.6,9.5,34,-99.99,,,0.00,0,rob ver 1B,2013-09-01 07:42:00,
2013-09-01 00:43:00,91.0,59.4,29.26,South,187,8.7,10.8,34,-99.99,,,0.00,0,rob ver 1B,2013-09-01 07:43:00,
2013-09-01 00:44:00,90.9,59.4,29.26,South,187,8.4,10.6,34,-99.99,,,0.00,0,rob ver 1B,2013-09-01 07:44:00,
2013-09-01 00:45:00,89.2,62.1,29.32,SSE,149,5.3,6.5,40,-99.99,,,0.00,0,rob ver 1A,2013-09-01 07:45:00,
2013-09-01 00:46:00,90.9,59.6,29.26,South,191,7.4,9.8,35,-99.99,,,0.00,0,rob ver 1B,2013-09-01 07:46:00,
2013-09-01 00:47:00,90.9,59.7,29.26,South,190,7.9,10.3,35,-99.99,,,0.00,0,rob ver 1B,2013-09-01 07:47:00,
2013-09-01 00:48:00,90.8,59.9,29.26,South,191,7.7,9.8,35,-99.99,,,0.00,0,rob ver 1B,2013-09-01 07:48:00,
2013-09-01 00:49:00,90.8,60.0,29.26,South,190,7.4,9.4,35,-99.99,,,0.00,0,rob ver 1B,2013-09-01 07:49:00,
2013-09-01 00:50:00,89.1,62.2,29.32,SSE,150,4.1,5.2,40,-99.99,,,0.00,0,rob ver 1A,2013-09-01 07:50:00,
2013-09-01 00:51:00,90.7,60.2,29.26,South,186,7.8,10.2,36,-99.99,,,0.00,0,rob ver 1B,2013-09-01 07:51:00,
2013-09-01 00:52:00,90.7,60.2,29.26,South,186,6.4,8.2,36,-99.99,,,0.00,0,rob ver 1B,2013-09-01 07:52:00,
2013-09-01 00:53:00,90.7,60.3,29.26,South,184,6.4,7.6,36,-99.99,,,0.00,0,rob ver 1B,2013-09-01 07:53:00,
2013-09-01 00:54:00,90.6,60.3,29.26,South,186,6.0,7.9,36,-99.99,,,0.00,0,rob ver 1B,2013-09-01 07:54:00,
2013-09-01 00:55:00,90.6,60.4,29.26,South,190,5.9,7.1,36,-99.99,,,0.00,0,rob ver 1B,2013-09-01 07:55:00,
2013-09-01 00:56:00,89.0,62.2,29.32,SSE,165,3.6,4.4,40,-99.99,,,0.00,0,rob ver 1A,2013-09-01 07:56:00,
2013-09-01 00:57:00,90.5,60.5,29.26,SSW,195,5.6,6.9,36,-99.99,,,0.00,0,rob ver 1B,2013-09-01 07:57:00,
2013-09-01 00:58:00,90.5,60.6,29.26,SSW,192,5.9,7.9,36,-99.99,,,0.00,0,rob ver 1B,2013-09-01 07:58:00,
2013-09-01 00:59:00,90.4,60.6,29.26,SSW,194,6.0,7.9,36,-99.99,,,0.00,0,rob ver 1B,2013-09-01 07:59:00,
2013-09-01 01:00:00,90.4,60.6,29.26,SSW,192,6.4,7.9,36,-99.99,,,0.00,0,rob ver 1B,2013-09-01 08:00:00,
2013-09-01 01:01:00,88.9,62.3,29.32,SSE,167,4.5,5.5,41,-99.99,,,0.00,0,rob ver 1A,2013-09-01 08:01:00,
2013-09-01 01:02:00,90.4,60.6,29.26,South,189,6.9,8.6,36,-99.99,,,0.00,0,rob ver 1B,2013-09-01 08:02:00,
2013-09-01 01:03:00,90.4,60.6,29.26,South,189,5.7,7.3,36,-99.99,,,0.00,0,rob ver 1B,2013-09-01 08:03:00,
2013-09-01 01:04:00,90.4,60.6,29.26,South,189,5.8,7.5,37,-99.99,,,0.00,0,rob ver 1B,2013-09-01 08:04:00,
2013-09-01 01:05:00,90.4,60.6,29.26,SSW,192,5.7,7.1,37,-99.99,,,0.00,0,rob ver 1B,2013-09-01 08:05:00,
2013-09-01 01:06:00,88.8,62.4,29.29,South,177,3.2,3.7,41,-99.99,,,0.00,0,rob ver 1A,2013-09-01 08:06:00,
2013-09-01 01:07:00,90.4,60.6,29.26,SSW,198,5.1,7.1,37,-99.99,,,0.00,0,rob ver 1B,2013-09-01 08:07:00,
2013-09-01 01:08:00,90.3,60.6,29.26,SSW,196,5.2,7.0,37,-99.99,,,0.00,0,rob ver 1B,2013-09-01 08:08:00,
2013-09-01 01:09:00,90.3,60.6,29.26,SSW,202,5.3,6.7,37,-99.99,,,0.00,0,rob ver 1B,2013-09-01 08:09:00,
2013-09-01 01:10:00,90.3,60.6,29.26,SSW,200,5.1,6.3,37,-99.99,,,0.00,0,rob ver 1B,2013-09-01 08:10:00,
2013-09-01 01:11:00,88.9,62.5,29.29,South,185,4.2,5.3,41,-99.99,,,0.00,0,rob ver 1A,2013-09-01 08:11:00,
2013-09-01 01:12:00,90.3,60.6,29.26,SSW,201,5.2,6.8,37,-99.99,,,0.00,0,rob ver 1B,2013-09-01 08:12:00,
2013-09-01 01:13:00,90.2,60.6,29.26,SSW,200,4.9,6.0,37,-99.99,,,0.00,0,rob ver 1B,2013-09-01 08:13:00,
2013-09-01 01:14:00,90.2,60.6,29.26,SSW,194,4.3,5.4,37,-99.99,,,0.00,0,rob ver 1B,2013-09-01 08:14:00,
2013-09-01 01:15:00,90.2,60.6,29.26,SSW,192,4.7,5.6,37,-99.99,,,0.00,0,rob ver 1B,2013-09-01 08:15:00,
2013-09-01 01:16:00,89.0,62.6,29.29,SSW,192,4.5,5.7,41,-99.99,,,0.00,0,rob ver 1A,2013-09-01 08:16:00,
2013-09-01 01:17:00,90.2,60.7,29.26,South,184,3.9,5.0,37,-99.99,,,0.00,0,rob ver 1B,2013-09-01 08:17:00,
2013-09-01 01:18:00,90.2,60.7,29.26,South,182,4.0,5.2,37,-99.99,,,0.00,0,rob ver 1B,2013-09-01 08:18:00,
2013-09-01 01:19:00,90.2,60.7,29.26,South,181,4.3,5.2,37,-99.99,,,0.00,0,rob ver 1B,2013-09-01 08:19:00,
2013-09-01 01:20:00,90.2,60.6,29.26,South,173,3.6,4.4,37,-99.99,,,0.00,0,rob ver 1B,2013-09-01 08:20:00,
2013-09-01 01:21:00,88.9,62.6,29.29,SSW,203,4.4,5.5,41,-99.99,,,0.00,0,rob ver 1A,2013-09-01 08:21:00,
2013-09-01 01:22:00,90.1,60.7,29.26,South,171,3.5,4.2,37,-99.99,,,0.00,0,rob ver 1B,2013-09-01 08:22:00,
2013-09-01 01:23:00,90.0,60.6,29.26,SSE,162,3.1,4.1,37,-99.99,,,0.00,0,rob ver 1B,2013-09-01 08:23:00,
2013-09-01 01:24:00,90.0,60.7,29.26,SSE,162,3.4,4.3,37,-99.99,,,0.00,0,rob ver 1B,2013-09-01 08:24:00,
2013-09-01 01:25:00,90.0,60.7,29.26,SSE,159,3.6,4.1,37,-99.99,,,0.00,0,rob ver 1B,2013-09-01 08:25:00,
2013-09-01 01:26:00,89.0,62.7,29.29,SSW,213,5.5,6.7,41,-99.99,,,0.00,0,rob ver 1A,2013-09-01 08:26:00,
2013-09-01 01:27:00,90.0,60.7,29.26,SSE,152,3.5,4.1,37,-99.99,,,0.00,0,rob ver 1B,2013-09-01 08:27:00,
2013-09-01 01:28:00,89.9,60.7,29.26,SE,146,3.4,4.0,37,-99.99,,,0.00,0,rob ver 1B,2013-09-01 08:28:00,
2013-09-01 01:29:00,89.9,60.7,29.26,SE,139,3.5,4.1,37,-99.99,,,0.00,0,rob ver 1B,2013-09-01 08:29:00,
2013-09-01 01:30:00,89.9,60.7,29.26,SE,142,3.5,4.2,37,-99.99,,,0.00,0,rob ver 1B,2013-09-01 08:30:00,
2013-09-01 01:31:00,89.0,62.8,29.29,SSW,198,5.5,6.4,41,-99.99,,,0.00,0,rob ver 1A,2013-09-01 08:31:00,
2013-09-01 01:32:00,89.8,60.8,29.26,ESE,122,3.0,3.3,37,-99.99,,,0.00,0,rob ver 1B,2013-09-01 08:32:00,
2013-09-01 01:33:00,89.8,60.7,29.26,ESE,121,2.8,3.8,37,-99.99,,,0.00,0,rob ver 1B,2013-09-01 08:33:00,
2013-09-01 01:34:00,89.7,60.7,29.26,SE,124,2.8,3.4,37,-99.99,,,0.00,0,rob ver 1B,2013-09-01 08:34:00,
2013-09-01 01:35:00,89.7,60.7,29.26,ESE,121,2.7,3.2,38,-99.99,,,0.00,0,rob ver 1B,2013-09-01 08:35:00,
2013-09-01 01:36:00,88.9,62.9,29.29,SSW,193,6.3,7.7,41,-99.99,,,0.00,0,rob ver 1A,2013-09-01 08:36:00,
2013-09-01 01:37:00,89.6,60.8,29.26,SE,127,3.1,3.7,38,-99.99,,,0.00,0,rob ver 1B,2013-09-01 08:37:00,
2013-09-01 01:38:00,89.6,60.8,29.26,SE,139,3.2,3.8,38,-99.99,,,0.00,0,rob ver 1B,2013-09-01 08:38:00,
2013-09-01 01:39:00,89.6,60.9,29.26,SE,145,3.7,4.6,38,-99.99,,,0.00,0,rob ver 1B,2013-09-01 08:39:00,
2013-09-01 01:40:00,89.7,61.0,29.26,SE,143,4.0,5.9,38,-99.99,,,0.00,0,rob ver 1B,2013-09-01 08:40:00,
2013-09-01 01:41:00,88.8,63.0,29.29,SSW,195,5.7,7.2,42,-99.99,,,0.00,0,rob ver 1A,2013-09-01 08:41:00,
2013-09-01 01:42:00,89.9,61.1,29.26,South,173,5.8,7.3,38,-99.99,,,0.00,0,rob ver 1B,2013-09-01 08:42:00,
2013-09-01 01:43:00,90.0,61.1,29.26,SSE,155,4.9,6.0,37,-99.99,,,0.00,0,rob ver 1B,2013-09-01 08:43:00,
2013-09-01 01:44:00,90.1,61.0,29.26,SSE,157,4.3,6.1,37,-99.99,,,0.00,0,rob ver 1B,2013-09-01 08:44:00,
2013-09-01 01:45:00,90.0,61.0,29.26,SSE,163,4.0,4.9,37,-99.99,,,0.00,0,rob ver 1B,2013-09-01 08:45:00,
2013-09-01 01:46:00,88.7,63.1,29.29,SSW,195,5.6,6.6,42,-99.99,,,0.00,0,rob ver 1A,2013-09-01 08:46:00,
2013-09-01 01:47:00,89.8,61.0,29.26,SSE,162,3.6,5.3,38,-99.99,,,0.00,0,rob ver 1B,2013-09-01 08:47:00,
2013-09-01 01:48:00,89.7,61.1,29.26,SSE,166,3.6,4.4,38,-99.99,,,0.00,0,rob ver 1B,2013-09-01 08:48:00,
2013-09-01 01:49:00,89.7,61.1,29.26,South,171,3.7,4.3,38,-99.99,,,0.00,0,rob ver 1B,2013-09-01 08:49:00,
2013-09-01 01:50:00,89.6,61.1,29.26,South,175,4.0,5.0,38,-99.99,,,0.00,0,rob ver 1B,2013-09-01 08:50:00,
2013-09-01 01:51:00,89.6,61.2,29.26,South,178,4.2,5.1,38,-99.99,,,0.00,0,rob ver 1B,2013-09-01 08:51:00,
2013-09-01 01:52:00,88.6,63.1,29.29,SSW,196,5.4,6.4,42,-99.99,,,0.00,0,rob ver 1A,2013-09-01 08:52:00,
2013-09-01 01:53:00,89.6,61.2,29.26,South,170,4.1,4.9,38,-99.99,,,0.00,0,rob ver 1B,2013-09-01 08:53:00,
2013-09-01 01:54:00,89.6,61.1,29.26,South,173,4.5,5.0,38,-99.99,,,0.00,0,rob ver 1B,2013-09-01 08:54:00,
2013-09-01 01:55:00,89.5,61.1,29.26,South,171,4.6,5.1,38,-99.99,,,0.00,0,rob ver 1B,2013-09-01 08:55:00,
2013-09-01 01:56:00,89.5,61.2,29.26,South,173,4.5,4.9,38,-99.99,,,0.00,0,rob ver 1B,2013-09-01 08:56:00,
2013-09-01 01:57:00,88.5,63.2,29.29,SSW,204,5.4,6.9,43,-99.99,,,0.00,0,rob ver 1A,2013-09-01 08:57:00,
2013-09-01 01:58:00,89.3,61.2,29.26,South,176,3.6,4.4,39,-99.99,,,0.00,0,rob ver 1B,2013-09-01 08:58:00,
2013-09-01 01:59:00,89.2,61.2,29.26,South,173,3.7,4.5,39,-99.99,,,0.00,0,rob ver 1B,2013-09-01 08:59:00,
2013-09-01 02:00:00,89.2,61.2,29.26,South,171,3.4,4.2,39,-99.99,,,0.00,0,rob ver 1B,2013-09-01 09:00:00,
2013-09-01 02:01:00,89.1,61.2,29.26,SSE,162,3.1,3.5,39,-99.99,,,0.00,0,rob ver 1B,2013-09-01 09:01:00,
2013-09-01 02:02:00,88.5,63.3,29.29,SSW,209,4.5,5.3,43,-99.99,,,0.00,0,rob ver 1A,2013-09-01 09:02:00,
2013-09-01 02:03:00,89.0,61.2,29.26,SE,139,2.7,3.2,39,-99.99,,,0.00,0,rob ver 1B,2013-09-01 09:03:00,
2013-09-01 02:04:00,88.9,61.1,29.26,SE,135,2.9,3.4,39,-99.99,,,0.00,0,rob ver 1B,2013-09-01 09:04:00,
2013-09-01 02:05:00,88.9,61.2,29.26,SE,130,2.5,3.1,39,-99.99,,,0.00,0,rob ver 1B,2013-09-01 09:05:00,
2013-09-01 02:06:00,88.8,61.2,29.26,ESE,117,1.9,2.3,39,-99.99,,,0.00,0,rob ver 1B,2013-09-01 09:06:00,
2013-09-01 02:07:00,88.4,63.2,29.29,South,186,4.5,5.2,43,-99.99,,,0.00,0,rob ver 1A,2013-09-01 09:07:00,
2013-09-01 02:08:00,88.6,61.4,29.26,ESE,116,1.8,2.3,40,-99.99,,,0.00,0,rob ver 1B,2013-09-01 09:08:00,
2013-09-01 02:09:00,88.6,61.5,29.26,SE,126,2.2,2.6,40,-99.99,,,0.00,0,rob ver 1B,2013-09-01 09:09:00,
2013-09-01 02:10:00,88.6,61.6,29.26,SE,124,1.9,2.3,40,-99.99,,,0.00,0,rob ver 1B,2013-09-01 09:10:00,
2013-09-01 02:11:00,88.5,61.7,29.26,ESE,110,1.6,2.1,40,-99.99,,,0.00,0,rob ver 1B,2013-09-01 09:11:00,
2013-09-01 02:12:00,88.3,63.1,29.29,South,178,4.5,5.5,43,-99.99,,,0.00,0,rob ver 1A,2013-09-01 09:12:00,
2013-09-01 02:13:00,88.5,62.0,29.26,ESE,109,1.6,2.0,41,-99.99,,,0.00,0,rob ver 1B,2013-09-01 09:13:00,
2013-09-01 02:14:00,88.5,62.0,29.26,East,101,1.8,2.2,41,-99.99,,,0.00,0,rob ver 1B,2013-09-01 09:14:00,
2013-09-01 02:15:00,88.4,62.2,29.26,ESE,102,1.7,2.0,41,-99.99,,,0.00,0,rob ver 1B,2013-09-01 09:15:00,
2013-09-01 02:16:00,88.4,62.3,29.26,East,91,1.8,2.2,41,-99.99,,,0.00,0,rob ver 1B,2013-09-01 09:16:00,
2013-09-01 02:17:00,88.2,63.1,29.29,South,170,4.5,5.5,43,-99.99,,,0.00,0,rob ver 1A,2013-09-01 09:17:00,
2013-09-01 02:18:00,88.4,62.5,29.26,East,79,1.8,2.3,42,-99.99,,,0.00,0,rob ver 1B,2013-09-01 09:18:00,
2013-09-01 02:19:00,88.4,62.6,29.26,East,79,1.7,2.0,42,-99.99,,,0.00,0,rob ver 1B,2013-09-01 09:19:00,
2013-09-01 02:20:00,88.3,62.7,29.26,ENE,74,1.7,2.1,42,-99.99,,,0.00,0,rob ver 1B,2013-09-01 09:20:00,
2013-09-01 02:21:00,88.3,62.8,29.26,ENE,65,1.6,2.0,42,-99.99,,,0.00,0,rob ver 1B,2013-09-01 09:21:00,
2013-09-01 02:22:00,88.2,63.1,29.29,South,172,5.0,5.7,43,-99.99,,,0.00,0,rob ver 1A,2013-09-01 09:22:00,
2013-09-01 02:23:00,88.2,63.0,29.26,NE,50,1.7,1.9,43,-99.99,,,0.00,0,rob ver 1B,2013-09-01 09:23:00,
2013-09-01 02:24:00,88.2,63.1,29.26,ENE,60,1.5,1.9,43,-99.99,,,0.00,0,rob ver 1B,2013-09-01 09:24:00,
2013-09-01 02:25:00,88.2,63.2,29.26,ENE,76,1.3,1.7,43,-99.99,,,0.00,0,rob ver 1B,2013-09-01 09:25:00,
2013-09-01 02:26:00,88.2,63.2,29.26,East,93,1.4,1.6,43,-99.99,,,0.00,0,rob ver 1B,2013-09-01 09:26:00,
2013-09-01 02:27:00,88.1,63.2,29.29,South,169,4.8,5.4,43,-99.99,,,0.00,0,rob ver 1A,2013-09-01 09:27:00,
2013-09-01 02:28:00,88.2,63.4,29.26,ESE,122,1.5,1.9,43,-99.99,,,0.00,0,rob ver 1B,2013-09-01 09:28:00,
2013-09-01 02:29:00,88.2,63.4,29.26,SE,129,1.8,2.2,43,-99.99,,,0.00,0,rob ver 1B,2013-09-01 09:29:00,
2013-09-01 02:30:00,88.3,63.5,29.26,SE,132,2.0,2.6,43,-99.99,,,0.00,0,rob ver 1B,2013-09-01 09:30:00,
2013-09-01 02:31:00,88.3,63.4,29.26,SE,137,2.1,2.6,43,-99.99,,,0.00,0,rob ver 1B,2013-09-01 09:31:00,
2013-09-01 02:32:00,87.9,63.2,29.29,SSE,162,3.8,4.6,43,-99.99,,,0.00,0,rob ver 1A,2013-09-01 09:32:00,
2013-09-01 02:33:00,88.3,63.4,29.26,SE,139,2.4,2.8,43,-99.99,,,0.00,0,rob ver 1B,2013-09-01 09:33:00,
2013-09-01 02:34:00,88.3,63.4,29.26,SE,139,2.4,2.6,43,-99.99,,,0.00,0,rob ver 1B,2013-09-01 09:34:00,
2013-09-01 02:35:00,88.3,63.3,29.26,SE,141,2.5,2.8,43,-99.99,,,0.00,0,rob ver 1B,2013-09-01 09:35:00,
2013-09-01 02:36:00,88.3,63.2,29.26,SE,142,2.3,2.8,43,-99.99,,,0.00,0,rob ver 1B,2013-09-01 09:36:00,
2013-09-01 02:37:00,87.8,63.2,29.29,SSE,162,2.9,3.5,44,-99.99,,,0.00,0,rob ver 1A,2013-09-01 09:37:00,
2013-09-01 02:38:00,88.2,63.2,29.26,SE,144,2.1,2.7,43,-99.99,,,0.00,0,rob ver 1B,2013-09-01 09:38:00,
2013-09-01 02:39:00,88.1,63.2,29.26,SE,145,2.0,2.4,43,-99.99,,,0.00,0,rob ver 1B,2013-09-01 09:39:00,
2013-09-01 02:40:00,88.1,63.3,29.26,SE,145,2.2,2.5,43,-99.99,,,0.00,0,rob ver 1B,2013-09-01 09:40:00,
2013-09-01 02:41:00,88.1,63.3,29.26,SSE,147,2.1,2.6,43,-99.99,,,0.00,0,rob ver 1B,2013-09-01 09:41:00,
2013-09-01 02:42:00,87.7,63.2,29.29,SSE,159,2.9,3.5,44,-99.99,,,0.00,0,rob ver 1A,2013-09-01 09:42:00,
2013-09-01 02:43:00,88.1,63.3,29.26,SE,141,1.9,2.5,43,-99.99,,,0.00,0,rob ver 1B,2013-09-01 09:43:00,
2013-09-01 02:44:00,88.1,63.3,29.26,SE,144,1.7,2.4,43,-99.99,,,0.00,0,rob ver 1B,2013-09-01 09:44:00,
2013-09-01 02:45:00,88.1,63.4,29.26,SE,146,2.3,3.0,43,-99.99,,,0.00,0,rob ver 1B,2013-09-01 09:45:00,
2013-09-01 02:46:00,88.1,63.3,29.26,SE,143,1.8,2.4,43,-99.99,,,0.00,0,rob ver 1B,2013-09-01 09:46:00,
2013-09-01 02:47:00,87.5,63.2,29.29,South,170,5.1,6.4,44,-99.99,,,0.00,0,rob ver 1A,2013-09-01 09:47:00,
2013-09-01 02:48:00,88.1,63.4,29.26,SE,135,2.6,4.9,43,-99.99,,,0.00,0,rob ver 1B,2013-09-01 09:48:00,
2013-09-01 02:49:00,88.1,63.4,29.26,SE,144,3.1,4.4,43,-99.99,,,0.00,0,rob ver 1B,2013-09-01 09:49:00,
2013-09-01 02:50:00,88.1,63.4,29.26,SSE,151,2.9,4.0,44,-99.99,,,0.00,0,rob ver 1B,2013-09-01 09:50:00,
2013-09-01 02:51:00,88.1,63.4,29.26,SSE,162,3.9,5.6,43,-99.99,,,0.00,0,rob ver 1B,2013-09-01 09:51:00,
2013-09-01 02:52:00,88.1,63.4,29.26,SSE,161,3.2,4.0,43,-99.99,,,0.00,0,rob ver 1B,2013-09-01 09:52:00,
2013-09-01 02:53:00,87.4,63.4,29.29,South,174,4.4,5.0,44,-99.99,,,0.00,0,rob ver 1A,2013-09-01 09:53:00,
2013-09-01 02:54:00,88.0,63.6,29.26,South,171,3.8,5.5,44,-99.99,,,0.00,0,rob ver 1B,2013-09-01 09:54:00,
2013-09-01 02:55:00,88.1,63.6,29.26,SSE,162,3.7,5.0,44,-99.99,,,0.00,0,rob ver 1B,2013-09-01 09:55:00,
2013-09-01 02:56:00,88.1,63.6,29.26,South,170,3.8,5.2,44,-99.99,,,0.00,0,rob ver 1B,2013-09-01 09:56:00,
2013-09-01 02:57:00,88.2,63.6,29.26,South,179,3.1,5.1,43,-99.99,,,0.00,0,rob ver 1B,2013-09-01 09:57:00,
2013-09-01 02:58:00,87.2,63.7,29.29,South,176,5.9,7.4,45,-99.99,,,0.00,0,rob ver 1A,2013-09-01 09:58:00,
2013-09-01 02:59:00,88.3,63.6,29.26,South,171,3.2,5.2,43,-99.99,,,0.00,0,rob ver 1B,2013-09-01 09:59:00,
2013-09-01 03:00:00,88.3,63.5,29.26,South,170,2.7,3.8,43,-99.99,,,0.00,0,rob ver 1B,2013-09-01 10:00:00,
2013-09-01 03:01:00,88.4,63.5,29.26,SSE,161,3.0,3.5,43,-99.99,,,0.00,0,rob ver 1B,2013-09-01 10:01:00,
2013-09-01 03:02:00,88.4,63.5,29.26,SSE,154,2.6,3.2,43,-99.99,,,0.00,0,rob ver 1B,2013-09-01 10:02:00,
2013-09-01 03:03:00,86.9,64.1,29.29,South,185,6.9,8.4,46,-99.99,,,0.00,0,rob ver 1A,2013-09-01 10:03:00,
2013-09-01 03:04:00,88.5,63.6,29.26,South,186,4.2,5.2,43,-99.99,,,0.00,0,rob ver 1B,2013-09-01 10:04:00,
2013-09-01 03:05:00,88.5,63.5,29.26,SSE,164,3.9,5.4,43,-99.99,,,0.00,0,rob ver 1B,2013-09-01 10:05:00,
2013-09-01 03:06:00,88.5,63.5,29.26,SSE,153,3.7,4.5,43,-99.99,,,0.00,0,rob ver 1B,2013-09-01 10:06:00,
2013-09-01 03:07:00,88.6,63.4,29.26,SSE,154,4.1,5.0,43,-99.99,,,0.00,0,rob ver 1B,2013-09-01 10:07:00,
2013-09-01 03:08:00,86.6,64.0,29.29,SSW,199,7.3,8.4,47,-99.99,,,0.00,0,rob ver 1A,2013-09-01 10:08:00,
2013-09-01 03:09:00,88.6,63.5,29.26,SSE,157,2.7,3.7,43,-99.99,,,0.00,0,rob ver 1B,2013-09-01 10:09:00,
2013-09-01 03:10:00,88.6,63.5,29.26,SSE,153,1.5,2.3,43,-99.99,,,0.00,0,rob ver 1B,2013-09-01 10:10:00,
2013-09-01 03:11:00,88.5,63.5,29.26,SE,139,2.8,4.3,43,-99.99,,,0.00,0,rob ver 1B,2013-09-01 10:11:00,
2013-09-01 03:12:00,88.5,63.5,29.26,SSE,149,2.7,3.1,43,-99.99,,,0.00,0,rob ver 1B,2013-09-01 10:12:00,
2013-09-01 03:13:00,86.4,64.0,29.29,SSW,202,8.1,10.0,47,-99.99,,,0.00,0,rob ver 1A,2013-09-01 10:13:00,
2013-09-01 03:14:00,88.4,63.4,29.26,SSE,156,3.7,5.0,43,-99.99,,,0.00,0,rob ver 1B,2013-09-01 10:14:00,
2013-09-01 03:15:00,88.4,63.3,29.26,SSE,167,4.0,6.1,43,-99.99,,,0.00,0,rob ver 1B,2013-09-01 10:15:00,
2013-09-01 03:16:00,88.5,63.3,29.26,SSE,160,3.2,4.1,43,-99.99,,,0.00,0,rob ver 1B,2013-09-01 10:16:00,
2013-09-01 03:17:00,88.5,63.3,29.26,SSE,167,2.8,3.2,43,-99.99,,,0.00,0,rob ver 1B,2013-09-01 10:17:00,
2013-09-01 03:18:00,86.3,64.0,29.29,SSW,203,7.0,8.6,47,-99.99,,,0.00,0,rob ver 1A,2013-09-01 10:18:00,
2013-09-01 03:19:00,88.5,63.4,29.26,South,188,1.7,2.1,43,-99.99,,,0.00,0,rob ver 1B,2013-09-01 10:19:00,
2013-09-01 03:20:00,88.4,63.4,29.26,SSW,195,1.8,2.2,43,-99.99,,,0.00,0,rob ver 1B,2013-09-01 10:20:00,
2013-09-01 03:21:00,88.3,63.4,29.26,South,191,1.7,2.2,43,-99.99,,,0.00,0,rob ver 1B,2013-09-01 10:21:00,
2013-09-01 03:22:00,88.3,63.4,29.26,SSW,193,1.7,2.1,43,-99.99,,,0.00,0,rob ver 1B,2013-09-01 10:22:00,
2013-09-01 03:23:00,86.3,64.0,29.29,SSW,205,6.7,7.8,47,-99.99,,,0.00,0,rob ver 1A,2013-09-01 10:23:00,
2013-09-01 03:24:00,88.1,63.2,29.26,South,181,2.4,3.6,43,-99.99,,,0.00,0,rob ver 1B,2013-09-01 10:24:00,
2013-09-01 03:25:00,88.2,63.1,29.26,South,178,2.3,3.8,43,-99.99,,,0.00,0,rob ver 1B,2013-09-01 10:25:00,
2013-09-01 03:26:00,88.2,63.1,29.26,SSE,167,3.4,4.5,43,-99.99,,,0.00,0,rob ver 1B,2013-09-01 10:26:00,
2013-09-01 03:27:00,88.2,63.0,29.26,SSE,160,3.4,4.3,43,-99.99,,,0.00,0,rob ver 1B,2013-09-01 10:27:00,
2013-09-01 03:28:00,86.2,64.1,29.29,SSW,206,6.7,8.0,47,-99.99,,,0.00,0,rob ver 1A,2013-09-01 10:28:00,
2013-09-01 03:29:00,88.4,63.1,29.26,SSE,159,3.1,3.7,43,-99.99,,,0.00,0,rob ver 1B,2013-09-01 10:29:00,
2013-09-01 03:30:00,88.4,63.1,29.26,SSE,166,2.7,3.1,42,-99.99,,,0.00,0,rob ver 1B,2013-09-01 10:30:00,
2013-09-01 03:31:00,88.4,63.1,29.26,SSE,150,2.6,2.9,43,-99.99,,,0.00,0,rob ver 1B,2013-09-01 10:31:00,
2013-09-01 03:32:00,88.3,63.1,29.26,SSE,148,2.3,2.8,43,-99.99,,,0.00,0,rob ver 1B,2013-09-01 10:32:00,
2013-09-01 03:33:00,88.2,63.1,29.26,SE,139,1.9,2.3,43,-99.99,,,0.00,0,rob ver 1B,2013-09-01 10:33:00,
2013-09-01 03:34:00,86.1,64.1,29.29,SSW,201,6.7,7.4,47,-99.99,,,0.00,0,rob ver 1A,2013-09-01 10:34:00,
2013-09-01 03:35:00,88.2,62.9,29.26,SE,146,2.0,2.8,43,-99.99,,,0.00,0,rob ver 1B,2013-09-01 10:35:00,
2013-09-01 03:36:00,88.2,63.0,29.26,SE,137,1.8,2.4,43,-99.99,,,0.00,0,rob ver 1B,2013-09-01 10:36:00,
2013-09-01 03:37:00,88.2,63.0,29.26,SE,133,1.6,2.3,43,-99.99,,,0.00,0,rob ver 1B,2013-09-01 10:37:00,
2013-09-01 03:38:00,88.2,63.0,29.26,SE,138,1.8,2.8,43,-99.99,,,0.00,0,rob ver 1B,2013-09-01 10:38:00,
2013-09-01 03:39:00,86.1,64.1,29.29,SSW,194,5.3,6.9,47,-99.99,,,0.00,0,rob ver 1A,2013-09-01 10:39:00,
2013-09-01 03:40:00,88.0,63.1,29.26,ESE,102,1.8,2.6,43,-99.99,,,0.00,0,rob ver 1B,2013-09-01 10:40:00,
2013-09-01 03:41:00,88.0,63.1,29.26,ESE,113,1.2,2.0,43,-99.99,,,0.00,0,rob ver 1B,2013-09-01 10:41:00,
2013-09-01 03:42:00,88.0,63.1,29.26,East,95,1.7,1.9,43,-99.99,,,0.00,0,rob ver 1B,2013-09-01 10:42:00,
2013-09-01 03:43:00,87.9,63.1,29.26,East,96,1.8,2.0,43,-99.99,,,0.00,0,rob ver 1B,2013-09-01 10:43:00,
2013-09-01 03:44:00,86.0,64.1,29.29,SSW,198,5.9,7.6,48,-99.99,,,0.00,0,rob ver 1A,2013-09-01 10:44:00,
2013-09-01 03:45:00,87.8,63.1,29.26,East,84,1.5,1.9,43,-99.99,,,0.00,0,rob ver 1B,2013-09-01 10:45:00,
2013-09-01 03:46:00,87.7,63.1,29.26,East,92,1.3,1.7,44,-99.99,,,0.00,0,rob ver 1B,2013-09-01 10:46:00,
2013-09-01 03:47:00,87.7,63.1,29.26,ENE,64,1.1,1.4,44,-99.99,,,0.00,0,rob ver 1B,2013-09-01 10:47:00,
2013-09-01 03:48:00,87.6,63.2,29.26,NE,42,1.1,1.3,44,-99.99,,,0.00,0,rob ver 1B,2013-09-01 10:48:00,
2013-09-01 03:49:00,86.0,64.1,29.29,SSW,195,5.2,7.0,48,-99.99,,,0.00,0,rob ver 1A,2013-09-01 10:49:00,
2013-09-01 03:50:00,87.4,63.2,29.26,NNE,23,1.0,1.2,44,-99.99,,,0.00,0,rob ver 1B,2013-09-01 10:50:00,
2013-09-01 03:51:00,87.4,63.3,29.26,NNE,22,0.5,0.8,44,-99.99,,,0.00,0,rob ver 1B,2013-09-01 10:51:00,
2013-09-01 03:52:00,87.5,63.3,29.26,North,8,0.9,1.2,44,-99.99,,,0.00,0,rob ver 1B,2013-09-01 10:52:00,
2013-09-01 03:53:00,87.5,63.3,29.26,North,6,1.2,1.5,44,-99.99,,,0.00,0,rob ver 1B,2013-09-01 10:53:00,
2013-09-01 03:54:00,85.9,64.1,29.29,SSW,198,5.8,7.2,47,-99.99,,,0.00,0,rob ver 1A,2013-09-01 10:54:00,
2013-09-01 03:55:00,87.4,63.3,29.26,NNE,13,1.5,1.7,44,-99.99,,,0.00,0,rob ver 1B,2013-09-01 10:55:00,
2013-09-01 03:56:00,87.4,63.1,29.26,NNE,24,1.6,1.9,44,-99.99,,,0.00,0,rob ver 1B,2013-09-01 10:56:00,
2013-09-01 03:57:00,87.2,63.2,29.26,NNE,31,1.4,1.6,44,-99.99,,,0.00,0,rob ver 1B,2013-09-01 10:57:00,
2013-09-01 03:58:00,87.3,63.4,29.26,NNE,27,1.1,1.3,44,-99.99,,,0.00,0,rob ver 1B,2013-09-01 10:58:00,
2013-09-01 03:59:00,85.9,63.9,29.29,SSW,192,6.0,7.2,47,-99.99,,,0.00,0,rob ver 1A,2013-09-01 10:59:00,
2013-09-01 04:00:00,87.3,63.4,29.26,NE,43,0.8,1.0,44,-99.99,,,0.00,0,rob ver 1B,2013-09-01 11:00:00,
2013-09-01 04:01:00,87.4,63.4,29.26,ENE,72,0.8,1.0,44,-99.99,,,0.00,0,rob ver 1B,2013-09-01 11:01:00,
2013-09-01 04:02:00,87.4,63.4,29.26,East,85,1.2,1.5,44,-99.99,,,0.00,0,rob ver 1B,2013-09-01 11:02:00,
2013-09-01 04:03:00,87.5,63.4,29.26,East,97,1.5,1.8,44,-99.99,,,0.00,0,rob ver 1B,2013-09-01 11:03:00,
2013-09-01 04:04:00,85.9,63.8,29.29,SSW,195,8.1,9.8,47,-99.99,,,0.00,0,rob ver 1A,2013-09-01 11:04:00,
2013-09-01 04:05:00,87.4,63.3,29.26,East,81,2.2,2.5,44,-99.99,,,0.00,0,rob ver 1B,2013-09-01 11:05:00,
2013-09-01 04:06:00,87.4,63.3,29.26,East,87,2.1,2.3,44,-99.99,,,0.00,0,rob ver 1B,2013-09-01 11:06:00,
2013-09-01 04:07:00,87.2,63.2,29.26,East,87,2.1,2.4,44,-99.99,,,0.00,0,rob ver 1B,2013-09-01 11:07:00,
2013-09-01 04:08:00,87.1,63.3,29.26,East,79,2.2,2.4,45,-99.99,,,0.00,0,rob ver 1B,2013-09-01 11:08:00,
2013-09-01 04:09:00,85.9,63.8,29.29,SSW,194,7.0,8.8,47,-99.99,,,0.00,0,rob ver 1A,2013-09-01 11:09:00,
2013-09-01 04:10:00,87.0,63.4,29.26,ENE,69,2.4,2.8,45,-99.99,,,0.00,0,rob ver 1B,2013-09-01 11:10:00,
2013-09-01 04:11:00,86.9,63.4,29.26,ENE,61,2.3,2.6,45,-99.99,,,0.00,0,rob ver 1B,2013-09-01 11:11:00,
2013-09-01 04:12:00,86.8,63.2,29.26,ENE,59,2.1,2.5,45,-99.99,,,0.00,0,rob ver 1B,2013-09-01 11:12:00,
2013-09-01 04:13:00,86.7,63.3,29.26,NE,56,2.5,2.8,45,-99.99,,,0.00,0,rob ver 1B,2013-09-01 11:13:00,
2013-09-01 04:14:00,85.8,63.8,29.29,SSW,195,6.1,7.6,47,-99.99,,,0.00,0,rob ver 1A,2013-09-01 11:14:00,
2013-09-01 04:15:00,86.6,63.4,29.26,NE,51,2.7,3.1,45,-99.99,,,0.00,0,rob ver 1B,2013-09-01 11:15:00,
2013-09-01 04:16:00,86.6,63.4,29.26,NE,49,2.9,3.4,46,-99.99,,,0.00,0,rob ver 1B,2013-09-01 11:16:00,
2013-09-01 04:17:00,86.4,63.4,29.26,NE,44,3.0,3.5,46,-99.99,,,0.00,0,rob ver 1B,2013-09-01 11:17:00,
2013-09-01 04:18:00,86.3,63.5,29.26,NE,44,3.0,3.4,46,-99.99,,,0.00,0,rob ver 1B,2013-09-01 11:18:00,
2013-09-01 04:19:00,85.6,63.9,29.29,SSW,200,6.5,7.5,48,-99.99,,,0.00,0,rob ver 1A,2013-09-01 11:19:00,
2013-09-01 04:20:00,86.0,63.5,29.26,NE,40,3.0,3.3,47,-99.99,,,0.00,0,rob ver 1B,2013-09-01 11:20:00,
2013-09-01 04:21:00,85.9,63.6,29.26,NE,39,3.0,3.4,47,-99.99,,,0.00,0,rob ver 1B,2013-09-01 11:21:00,
2013-09-01 04:22:00,85.9,63.6,29.26,NE,39,3.1,3.4,47,-99.99,,,0.00,0,rob ver 1B,2013-09-01 11:22:00,
2013-09-01 04:23:00,85.9,63.7,29.26,NE,38,3.1,3.2,47,-99.99,,,0.00,0,rob ver 1B,2013-09-01 11:23:00,
2013-09-01 04:24:00,85.6,63.9,29.29,SSW,198,5.9,6.8,48,-99.99,,,0.00,0,rob ver 1A,2013-09-01 11:24:00,
2013-09-01 04:25:00,86.0,63.6,29.26,NNE,32,2.8,3.1,47,-99.99,,,0.00,0,rob ver 1B,2013-09-01 11:25:00,
2013-09-01 04:26:00,86.0,63.6,29.26,NNE,32,2.9,3.0,47,-99.99,,,0.00,0,rob ver 1B,2013-09-01 11:26:00,
2013-09-01 04:27:00,86.1,63.7,29.26,NNE,32,2.8,3.0,47,-99.99,,,0.00,0,rob ver 1B,2013-09-01 11:27:00,
2013-09-01 04:28:00,86.3,63.7,29.26,NNE,32,2.7,2.9,46,-99.99,,,0.00,0,rob ver 1B,2013-09-01 11:28:00,
2013-09-01 04:29:00,85.5,63.9,29.29,South,185,5.8,7.2,48,-99.99,,,0.00,0,rob ver 1A,2013-09-01 11:29:00,
2013-09-01 04:30:00,86.4,63.5,29.26,NNE,28,2.9,3.1,46,-99.99,,,0.00,0,rob ver 1B,2013-09-01 11:30:00,
2013-09-01 04:31:00,86.5,63.5,29.26,NNE,30,2.6,3.2,46,-99.99,,,0.00,0,rob ver 1B,2013-09-01 11:31:00,
2013-09-01 04:32:00,86.5,63.5,29.26,NNE,27,3.3,3.5,46,-99.99,,,0.00,0,rob ver 1B,2013-09-01 11:32:00,
2013-09-01 04:33:00,86.7,63.5,29.26,NNE,24,3.4,3.6,45,-99.99,,,0.00,0,rob ver 1B,2013-09-01 11:33:00,
2013-09-01 04:34:00,86.8,63.4,29.26,NNE,27,3.0,3.6,45,-99.99,,,0.00,0,rob ver 1B,2013-09-01 11:34:00,
2013-09-01 04:35:00,85.4,64.0,29.29,South,183,4.4,5.5,48,-99.99,,,0.00,0,rob ver 1A,2013-09-01 11:35:00,
2013-09-01 04:36:00,86.6,63.3,29.26,NNE,22,1.9,2.6,45,-99.99,,,0.00,0,rob ver 1B,2013-09-01 11:36:00,
2013-09-01 04:37:00,86.5,63.3,29.26,NNE,32,1.7,2.0,46,-99.99,,,0.00,0,rob ver 1B,2013-09-01 11:37:00,
2013-09-01 04:38:00,86.4,63.4,29.26,NE,36,1.7,2.0,46,-99.99,,,0.00,0,rob ver 1B,2013-09-01 11:38:00,
2013-09-01 04:39:00,86.3,63.5,29.26,NE,38,1.9,2.4,46,-99.99,,,0.00,0,rob ver 1B,2013-09-01 11:39:00,
2013-09-01 04:40:00,85.4,64.0,29.29,SSE,168,3.5,4.3,48,-99.99,,,0.00,0,rob ver 1A,2013-09-01 11:40:00,
2013-09-01 04:41:00,86.2,63.6,29.26,NE,42,2.4,2.7,47,-99.99,,,0.00,0,rob ver 1B,2013-09-01 11:41:00,
2013-09-01 04:42:00,86.2,63.6,29.26,NE,42,2.4,2.6,47,-99.99,,,0.00,0,rob ver 1B,2013-09-01 11:42:00,
2013-09-01 04:43:00,86.2,63.6,29.26,NE,42,2.3,2.5,46,-99.99,,,0.00,0,rob ver 1B,2013-09-01 11:43:00,
2013-09-01 04:44:00,86.2,63.6,29.26,NE,42,2.3,2.5,46,-99.99,,,0.00,0,rob ver 1B,2013-09-01 11:44:00,
2013-09-01 04:45:00,85.4,64.1,29.29,South,179,3.5,4.0,49,-99.99,,,0.00,0,rob ver 1A,2013-09-01 11:45:00,
2013-09-01 04:46:00,86.1,63.4,29.26,NE,45,2.2,2.4,46,-99.99,,,0.00,0,rob ver 1B,2013-09-01 11:46:00,
2013-09-01 04:47:00,86.0,63.4,29.26,NE,42,2.3,2.6,46,-99.99,,,0.00,0,rob ver 1B,2013-09-01 11:47:00,
2013-09-01 04:48:00,85.9,63.4,29.26,NE,41,2.4,2.8,46,-99.99,,,0.00,0,rob ver 1B,2013-09-01 11:48:00,
2013-09-01 04:49:00,85.9,63.3,29.26,NE,43,2.2,2.8,47,-99.99,,,0.00,0,rob ver 1B,2013-09-01 11:49:00,
2013-09-01 04:50:00,85.4,64.0,29.29,South,172,4.3,5.0,48,-99.99,,,0.00,0,rob ver 1A,2013-09-01 11:50:00,
2013-09-01 04:51:00,85.8,63.4,29.26,NE,40,2.7,2.9,47,-99.99,,,0.00,0,rob ver 1B,2013-09-01 11:51:00,
2013-09-01 04:52:00,85.8,63.4,29.26,NE,38,2.9,3.1,47,-99.99,,,0.00,0,rob ver 1B,2013-09-01 11:52:00,
2013-09-01 04:53:00,85.9,63.3,29.26,NE,41,2.6,3.1,46,-99.99,,,0.00,0,rob ver 1B,2013-09-01 11:53:00,
2013-09-01 04:54:00,85.9,63.2,29.26,NE,39,2.7,2.9,46,-99.99,,,0.00,0,rob ver 1B,2013-09-01 11:54:00,
2013-09-01 04:55:00,85.4,64.1,29.29,SSE,158,4.4,5.4,48,-99.99,,,0.00,0,rob ver 1A,2013-09-01 11:55:00,
2013-09-01 04:56:00,85.9,63.0,29.26,NE,46,2.1,2.3,46,-99.99,,,0.00,0,rob ver 1B,2013-09-01 11:56:00,
2013-09-01 04:57:00,85.9,63.0,29.26,NE,50,1.6,2.2,46,-99.99,,,0.00,0,rob ver 1B,2013-09-01 11:57:00,
2013-09-01 04:58:00,86.1,63.2,29.26,ENE,73,1.4,2.8,46,-99.99,,,0.00,0,rob ver 1B,2013-09-01 11:58:00,
2013-09-01 04:59:00,86.2,63.0,29.26,NE,52,1.6,2.0,45,-99.99,,,0.00,0,rob ver 1B,2013-09-01 11:59:00,
2013-09-01 05:00:00,85.4,64.1,29.29,SE,146,4.6,5.3,48,-99.99,,,0.00,0,rob ver 1A,2013-09-01 12:00:00,
2013-09-01 05:01:00,86.4,63.0,29.26,ENE,69,1.0,1.5,45,-99.99,,,0.00,0,rob ver 1B,2013-09-01 12:01:00,
2013-09-01 05:02:00,86.5,63.0,29.26,NE,56,0.5,1.1,45,-99.99,,,0.00,0,rob ver 1B,2013-09-01 12:02:00,
2013-09-01 05:03:00,86.5,63.0,29.26,NNE,13,0.3,0.5,45,-99.99,,,0.00,0,rob ver 1B,2013-09-01 12:03:00,
2013-09-01 05:04:00,86.5,62.9,29.26,NNW,347,0.4,0.8,45,-99.99,,,0.00,0,rob ver 1B,2013-09-01 12:04:00,
2013-09-01 05:05:00,85.4,64.0,29.29,SE,141,5.0,5.7,48,-99.99,,,0.00,0,rob ver 1A,2013-09-01 12:05:00,
2013-09-01 05:06:00,86.4,62.9,29.26,North,8,0.4,0.8,45,-99.99,,,0.00,0,rob ver 1B,2013-09-01 12:06:00,
2013-09-01 05:07:00,86.4,63.0,29.26,NE,42,0.8,1.1,45,-99.99,,,0.00,0,rob ver 1B,2013-09-01 12:07:00,
2013-09-01 05:08:00,86.5,63.0,29.26,NE,39,1.2,1.5,45,-99.99,,,0.00,0,rob ver 1B,2013-09-01 12:08:00,
2013-09-01 05:09:00,86.5,63.0,29.26,NNE,26,1.4,1.7,45,-99.99,,,0.00,0,rob ver 1B,2013-09-01 12:09:00,
2013-09-01 05:10:00,85.4,64.1,29.29,SE,142,4.9,5.5,49,-99.99,,,0.00,0,rob ver 1A,2013-09-01 12:10:00,
2013-09-01 05:11:00,86.5,62.9,29.26,NE,39,2.0,2.2,45,-99.99,,,0.00,0,rob ver 1B,2013-09-01 12:11:00,
2013-09-01 05:12:00,86.5,62.9,29.26,NE,36,1.9,2.0,45,-99.99,,,0.00,0,rob ver 1B,2013-09-01 12:12:00,
2013-09-01 05:13:00,86.5,62.9,29.26,NE,40,1.8,2.0,45,-99.99,,,0.00,0,rob ver 1B,2013-09-01 12:13:00,
2013-09-01 05:14:00,86.5,63.0,29.26,NE,36,1.7,1.8,45,-99.99,,,0.00,0,rob ver 1B,2013-09-01 12:14:00,
2013-09-01 05:15:00,85.4,64.1,29.29,SE,135,4.4,5.2,48,-99.99,,,0.00,0,rob ver 1A,2013-09-01 12:15:00,
2013-09-01 05:16:00,86.5,62.9,29.26,North,6,1.2,1.3,45,-99.99,,,0.00,0,rob ver 1B,2013-09-01 12:16:00,
2013-09-01 05:17:00,86.6,63.0,29.26,North,355,1.1,1.3,45,-99.99,,,0.00,0,rob ver 1B,2013-09-01 12:17:00,
2013-09-01 05:18:00,86.6,63.0,29.26,NNW,345,1.2,1.3,45,-99.99,,,0.00,0,rob ver 1B,2013-09-01 12:18:00,
2013-09-01 05:19:00,86.7,62.9,29.26,NNW,337,1.2,1.3,45,-99.99,,,0.00,0,rob ver 1B,2013-09-01 12:19:00,
2013-09-01 05:20:00,85.4,64.1,29.29,SE,129,3.4,4.6,49,-99.99,,,0.00,0,rob ver 1A,2013-09-01 12:20:00,
2013-09-01 05:21:00,86.6,63.0,29.26,NW,310,1.1,1.2,45,-99.99,,,0.00,0,rob ver 1B,2013-09-01 12:21:00,
2013-09-01 05:22:00,86.5,63.1,29.26,NW,326,1.3,1.4,45,-99.99,,,0.00,0,rob ver 1B,2013-09-01 12:22:00,
2013-09-01 05:23:00,86.4,63.0,29.26,NNW,337,1.2,1.3,45,-99.99,,,0.00,0,rob ver 1B,2013-09-01 12:23:00,
2013-09-01 05:24:00,86.3,63.1,29.26,NNW,345,1.0,1.3,45,-99.99,,,0.00,0,rob ver 1B,2013-09-01 12:24:00,
2013-09-01 05:25:00,85.4,64.1,29.29,ESE,121,3.1,3.7,49,-99.99,,,0.00,0,rob ver 1A,2013-09-01 12:25:00,
2013-09-01 05:26:00,86.3,63.1,29.26,NNE,32,0.6,1.2,45,-99.99,,,0.00,0,rob ver 1B,2013-09-01 12:26:00,
2013-09-01 05:27:00,86.3,63.0,29.26,North,356,0.4,0.6,45,-99.99,,,0.00,0,rob ver 1B,2013-09-01 12:27:00,
2013-09-01 05:28:00,86.2,63.0,29.26,North,0,0.5,0.7,45,-99.99,,,0.00,0,rob ver 1B,2013-09-01 12:28:00,
2013-09-01 05:29:00,86.2,63.0,29.26,NNE,29,0.5,0.7,45,-99.99,,,0.00,0,rob ver 1B,2013-09-01 12:29:00,
2013-09-01 05:30:00,85.4,64.2,29.29,SE,126,3.0,3.5,49,-99.99,,,0.00,0,rob ver 1A,2013-09-01 12:30:00,
2013-09-01 05:31:00,86.2,62.9,29.26,ENE,70,0.4,1.0,45,-99.99,,,0.00,0,rob ver 1B,2013-09-01 12:31:00,
2013-09-01 05:32:00,86.2,63.0,29.26,SE,141,0.3,0.5,45,-99.99,,,0.00,0,rob ver 1B,2013-09-01 12:32:00,
2013-09-01 05:33:00,86.2,63.0,29.26,SE,137,0.3,0.6,45,-99.99,,,0.00,0,rob ver 1B,2013-09-01 12:33:00,
2013-09-01 05:34:00,86.3,62.9,29.26,SSE,151,0.6,0.9,45,-99.99,,,0.00,0,rob ver 1B,2013-09-01 12:34:00,
2013-09-01 05:35:00,85.4,64.2,29.29,SE,125,3.3,4.0,49,-99.99,,,0.00,0,rob ver 1A,2013-09-01 12:35:00,
2013-09-01 05:36:00,86.2,62.9,29.26,South,180,0.6,0.8,45,-99.99,,,0.00,0,rob ver 1B,2013-09-01 12:36:00,
2013-09-01 05:37:00,86.2,62.9,29.26,SSW,193,0.4,0.6,45,-99.99,,,0.00,0,rob ver 1B,2013-09-01 12:37:00,
2013-09-01 05:38:00,86.2,62.9,29.26,South,175,0.3,0.4,45,-99.99,,,0.00,0,rob ver 1B,2013-09-01 12:38:00,
2013-09-01 05:39:00,86.2,62.8,29.26,South,183,0.1,0.3,45,-99.99,,,0.00,0,rob ver 1B,2013-09-01 12:39:00,
2013-09-01 05:40:00,85.3,64.2,29.32,ESE,112,3.5,4.5,49,-99.99,,,0.00,0,rob ver 1A,2013-09-01 12:40:00,
2013-09-01 05:41:00,86.1,62.8,29.26,SE,134,0.2,0.5,45,-99.99,,,0.00,0,rob ver 1B,2013-09-01 12:41:00,
2013-09-01 05:42:00,86.1,62.9,29.26,ESE,104,0.6,1.0,46,-99.99,,,0.00,0,rob ver 1B,2013-09-01 12:42:00,
2013-09-01 05:43:00,86.1,62.9,29.26,NE,36,0.7,1.0,46,-99.99,,,0.00,0,rob ver 1B,2013-09-01 12:43:00,
2013-09-01 05:44:00,86.1,62.9,29.26,NE,38,1.0,1.0,45,-99.99,,,0.00,0,rob ver 1B,2013-09-01 12:44:00,
2013-09-01 05:45:00,85.3,64.2,29.32,ESE,122,3.4,3.9,49,-99.99,,,0.00,0,rob ver 1A,2013-09-01 12:45:00,
2013-09-01 05:46:00,86.2,62.9,29.26,NE,39,1.8,1.9,45,-99.99,,,0.00,0,rob ver 1B,2013-09-01 12:46:00,
2013-09-01 05:47:00,86.3,62.9,29.26,NE,42,1.8,2.0,45,-99.99,,,0.00,0,rob ver 1B,2013-09-01 12:47:00,
2013-09-01 05:48:00,86.4,62.9,29.26,NE,43,1.5,1.9,45,-99.99,,,0.00,0,rob ver 1B,2013-09-01 12:48:00,
2013-09-01 05:49:00,86.4,62.8,29.29,NE,39,1.5,1.9,45,-99.99,,,0.00,0,rob ver 1B,2013-09-01 12:49:00,
2013-09-01 05:50:00,85.3,64.3,29.32,SE,131,3.1,3.6,49,-99.99,,,0.00,0,rob ver 1A,2013-09-01 12:50:00,
2013-09-01 05:51:00,86.3,62.7,29.26,NNE,32,1.7,2.0,45,-99.99,,,0.00,0,rob ver 1B,2013-09-01 12:51:00,
2013-09-01 05:52:00,86.2,62.7,29.26,NNE,20,1.4,1.7,45,-99.99,,,0.00,0,rob ver 1B,2013-09-01 12:52:00,
2013-09-01 05:53:00,86.2,62.6,29.29,NNE,19,0.9,1.3,45,-99.99,,,0.00,0,rob ver 1B,2013-09-01 12:53:00,
2013-09-01 05:54:00,86.1,62.7,29.29,NNE,26,0.7,0.9,45,-99.99,,,0.00,0,rob ver 1B,2013-09-01 12:54:00,
2013-09-01 05:55:00,86.1,62.7,29.26,NNE,30,0.6,0.9,45,-99.99,,,0.00,0,rob ver 1B,2013-09-01 12:55:00,
2013-09-01 05:56:00,85.2,64.2,29.32,SE,125,1.8,2.1,49,-99.99,,,0.00,0,rob ver 1A,2013-09-01 12:56:00,
2013-09-01 05:57:00,86.2,62.6,29.29,NNE,14,0.8,1.1,45,-99.99,,,0.00,0,rob ver 1B,2013-09-01 12:57:00,
2013-09-01 05:58:00,86.1,62.6,29.29,NNE,13,1.1,1.2,45,-99.99,,,0.00,0,rob ver 1B,2013-09-01 12:58:00,
2013-09-01 05:59:00,86.1,62.7,29.26,North,3,1.0,1.2,45,-99.99,,,0.00,0,rob ver 1B,2013-09-01 12:59:00,
2013-09-01 06:00:00,86.1,62.7,29.26,North,0,1.3,1.5,45,-99.99,,,0.00,0,rob ver 1B,2013-09-01 13:00:00,
2013-09-01 06:01:00,85.1,64.2,29.29,SE,127,2.3,2.8,49,-99.99,,,0.00,0,rob ver 1A,2013-09-01 13:01:00,
2013-09-01 06:02:00,85.9,62.6,29.29,North,359,1.6,1.9,45,-99.99,,,0.00,0,rob ver 1B,2013-09-01 13:02:00,
2013-09-01 06:03:00,85.8,62.9,29.29,NNE,14,2.0,2.3,46,-99.99,,,0.00,0,rob ver 1B,2013-09-01 13:03:00,
2013-09-01 06:04:00,85.7,63.0,29.29,NNE,20,2.1,2.3,46,-99.99,,,0.00,0,rob ver 1B,2013-09-01 13:04:00,
2013-09-01 06:05:00,85.7,62.9,29.29,NNE,22,2.0,2.2,46,-99.99,,,0.00,0,rob ver 1B,2013-09-01 13:05:00,
2013-09-01 06:06:00,85.1,64.3,29.32,ESE,115,3.0,3.4,49,-99.99,,,0.00,0,rob ver 1A,2013-09-01 13:06:00,
2013-09-01 06:07:00,85.6,62.8,29.29,NNE,28,1.5,1.9,46,-99.99,,,0.00,0,rob ver 1B,2013-09-01 13:07:00,
2013-09-01 06:08:00,85.6,62.8,29.29,NNE,26,1.1,1.6,46,-99.99,,,0.00,0,rob ver 1B,2013-09-01 13:08:00,
2013-09-01 06:09:00,85.7,62.7,29.29,North,8,1.2,1.6,46,-99.99,,,0.00,0,rob ver 1B,2013-09-01 13:09:00,
2013-09-01 06:10:00,85.6,62.7,29.29,North,0,1.8,2.1,46,-99.99,,,0.00,0,rob ver 1B,2013-09-01 13:10:00,
2013-09-01 06:11:00,84.9,64.2,29.32,ESE,113,2.3,2.5,50,-99.99,,,0.00,0,rob ver 1A,2013-09-01 13:11:00,
2013-09-01 06:12:00,85.6,62.8,29.29,North,359,2.6,2.8,46,-99.99,,,0.00,0,rob ver 1B,2013-09-01 13:12:00,
2013-09-01 06:13:00,85.4,62.9,29.29,North,0,2.5,2.7,47,-99.99,,,0.00,0,rob ver 1B,2013-09-01 13:13:00,
2013-09-01 06:14:00,85.4,63.0,29.29,North,5,2.6,2.7,47,-99.99,,,0.00,0,rob ver 1B,2013-09-01 13:14:00,
2013-09-01 06:15:00,85.3,62.9,29.29,North,10,2.3,2.5,47,-99.99,,,0.00,0,rob ver 1B,2013-09-01 13:15:00,
2013-09-01 06:16:00,84.8,64.2,29.32,SE,127,2.5,3.4,50,-99.99,,,0.00,0,rob ver 1A,2013-09-01 13:16:00,
2013-09-01 06:17:00,85.2,62.9,29.29,North,8,2.0,2.2,47,-99.99,,,0.00,0,rob ver 1B,2013-09-01 13:17:00,
2013-09-01 06:18:00,85.1,62.9,29.29,North,9,2.0,2.3,47,-99.99,,,0.00,0,rob ver 1B,2013-09-01 13:18:00,
2013-09-01 06:19:00,85.1,62.9,29.29,NNE,16,2.0,2.3,47,-99.99,,,0.00,0,rob ver 1B,2013-09-01 13:19:00,
2013-09-01 06:20:00,85.0,62.8,29.29,NNE,13,1.7,2.0,47,-99.99,,,0.00,0,rob ver 1B,2013-09-01 13:20:00,
2013-09-01 06:21:00,84.9,64.2,29.32,SE,146,1.8,2.2,49,-99.99,,,0.00,0,rob ver 1A,2013-09-01 13:21:00,
2013-09-01 06:22:00,85.0,62.7,29.29,North,8,1.7,2.1,47,-99.99,,,0.00,0,rob ver 1B,2013-09-01 13:22:00,
2013-09-01 06:23:00,85.0,62.6,29.29,NNE,12,1.7,2.3,47,-99.99,,,0.00,0,rob ver 1B,2013-09-01 13:23:00,
2013-09-01 06:24:00,85.0,62.6,29.29,NNE,18,1.2,1.6,47,-99.99,,,0.00,0,rob ver 1B,2013-09-01 13:24:00,
2013-09-01 06:25:00,85.0,62.7,29.29,NNE,18,1.1,1.4,47,-99.99,,,0.00,0,rob ver 1B,2013-09-01 13:25:00,
2013-09-01 06:26:00,85.2,64.3,29.32,SSE,150,3.4,4.1,49,-99.99,,,0.00,0,rob ver 1A,2013-09-01 13:26:00,
2013-09-01 06:27:00,85.0,62.6,29.29,NNE,30,1.6,1.9,47,-99.99,,,0.00,0,rob ver 1B,2013-09-01 13:27:00,
2013-09-01 06:28:00,85.1,62.7,29.29,NE,36,1.8,2.1,47,-99.99,,,0.00,0,rob ver 1B,2013-09-01 13:28:00,
2013-09-01 06:29:00,85.2,62.7,29.29,NE,37,1.8,2.1,47,-99.99,,,0.00,0,rob ver 1B,2013-09-01 13:29:00,
2013-09-01 06:30:00,85.4,62.8,29.29,NE,39,1.7,2.1,46,-99.99,,,0.00,0,rob ver 1B,2013-09-01 13:30:00,
2013-09-01 06:31:00,85.3,64.2,29.32,South,180,1.9,2.3,49,-99.99,,,0.00,0,rob ver 1A,2013-09-01 13:31:00,
2013-09-01 06:32:00,85.7,62.7,29.29,NE,41,1.6,1.8,46,-99.99,,,0.00,0,rob ver 1B,2013-09-01 13:32:00,
2013-09-01 06:33:00,85.9,62.6,29.29,NE,43,1.5,1.6,45,-99.99,,,0.00,0,rob ver 1B,2013-09-01 13:33:00,
2013-09-01 06:34:00,86.1,62.5,29.29,NE,38,1.3,1.5,44,-99.99,,,0.00,0,rob ver 1B,2013-09-01 13:34:00,
2013-09-01 06:35:00,86.3,62.4,29.29,NNE,27,1.1,1.3,44,-99.99,,,0.00,0,rob ver 1B,2013-09-01 13:35:00,
2013-09-01 06:36:00,85.4,64.4,29.32,SSW,203,3.0,3.5,49,-99.99,,,0.00,0,rob ver 1A,2013-09-01 13:36:00,
2013-09-01 06:37:00,86.5,62.5,29.29,NNE,20,1.6,1.7,44,-99.99,,,0.00,0,rob ver 1B,2013-09-01 13:37:00,
2013-09-01 06:38:00,86.5,62.4,29.29,NNE,14,1.6,1.9,44,-99.99,,,0.00,0,rob ver 1B,2013-09-01 13:38:00,
2013-09-01 06:39:00,86.6,62.4,29.29,NNE,17,1.9,2.3,44,-99.99,,,0.00,0,rob ver 1B,2013-09-01 13:39:00,
2013-09-01 06:40:00,86.6,62.4,29.29,NNE,19,1.8,2.2,44,-99.99,,,0.00,0,rob ver 1B,2013-09-01 13:40:00,
2013-09-01 06:41:00,85.6,64.6,29.32,SSW,203,2.5,2.9,49,-99.99,,,0.00,0,rob ver 1A,2013-09-01 13:41:00,
2013-09-01 06:42:00,86.7,62.6,29.29,NNE,27,1.3,1.5,44,-99.99,,,0.00,0,rob ver 1B,2013-09-01 13:42:00,
2013-09-01 06:43:00,86.8,62.7,29.29,NNE,17,1.1,1.4,44,-99.99,,,0.00,0,rob ver 1B,2013-09-01 13:43:00,
2013-09-01 06:44:00,86.9,62.9,29.29,North,357,0.7,1.0,44,-99.99,,,0.00,0,rob ver 1B,2013-09-01 13:44:00,
2013-09-01 06:45:00,87.1,62.9,29.29,NNE,16,0.6,0.9,44,-99.99,,,0.00,0,rob ver 1B,2013-09-01 13:45:00,
2013-09-01 06:46:00,85.9,64.8,29.32,SSW,207,2.9,3.3,49,-99.99,,,0.00,0,rob ver 1A,2013-09-01 13:46:00,
2013-09-01 06:47:00,87.7,62.9,29.29,North,6,0.8,1.0,43,-99.99,,,0.00,0,rob ver 1B,2013-09-01 13:47:00,
2013-09-01 06:48:00,87.9,62.8,29.29,North,2,0.5,0.7,43,-99.99,,,0.00,0,rob ver 1B,2013-09-01 13:48:00,
2013-09-01 06:49:00,88.1,62.8,29.29,NNE,18,0.8,1.3,42,-99.99,,,0.00,0,rob ver 1B,2013-09-01 13:49:00,
2013-09-01 06:50:00,88.3,62.5,29.29,NNE,23,1.0,1.2,42,-99.99,,,0.00,0,rob ver 1B,2013-09-01 13:50:00,
2013-09-01 06:51:00,86.2,64.7,29.32,WSW,244,1.7,2.4,48,-99.99,,,0.00,0,rob ver 1A,2013-09-01 13:51:00,
2013-09-01 06:52:00,88.4,62.4,29.29,NNE,32,1.1,1.3,41,-99.99,,,0.00,0,rob ver 1B,2013-09-01 13:52:00,
2013-09-01 06:53:00,88.4,62.4,29.29,NNE,30,1.1,1.2,41,-99.99,,,0.00,0,rob ver 1B,2013-09-01 13:53:00,
2013-09-01 06:54:00,88.4,62.2,29.29,NNE,29,0.9,1.0,41,-99.99,,,0.00,0,rob ver 1B,2013-09-01 13:54:00,
2013-09-01 06:55:00,88.5,62.1,29.29,NNE,32,0.8,1.0,41,-99.99,,,0.00,0,rob ver 1B,2013-09-01 13:55:00,
2013-09-01 06:56:00,88.6,62.2,29.29,NE,39,0.9,1.1,41,-99.99,,,0.00,0,rob ver 1B,2013-09-01 13:56:00,
2013-09-01 06:57:00,86.8,64.9,29.32,WNW,283,1.1,1.5,48,-99.99,,,0.00,0,rob ver 1A,2013-09-01 13:57:00,
2013-09-01 06:58:00,89.1,62.4,29.29,ENE,64,0.3,0.7,40,-99.99,,,0.00,0,rob ver 1B,2013-09-01 13:58:00,
2013-09-01 06:59:00,89.5,62.2,29.29,East,96,0.1,0.2,39,-99.99,,,0.00,0,rob ver 1B,2013-09-01 13:59:00,
2013-09-01 07:00:00,89.8,62.3,29.29,SSE,153,0.3,0.5,40,-99.99,,,0.00,0,rob ver 1B,2013-09-01 14:00:00,
2013-09-01 07:01:00,90.0,62.4,29.29,SSW,192,0.3,0.4,39,-99.99,,,0.00,0,rob ver 1B,2013-09-01 14:01:00,
2013-09-01 07:02:00,86.8,65.0,29.32,West,279,1.9,2.5,48,-99.99,,,0.00,0,rob ver 1A,2013-09-01 14:02:00,
2013-09-01 07:03:00,90.3,62.3,29.29,SW,228,0.4,0.6,39,-99.99,,,0.00,0,rob ver 1B,2013-09-01 14:03:00,
2013-09-01 07:04:00,90.2,62.2,29.29,SW,234,0.7,1.0,39,-99.99,,,0.00,0,rob ver 1B,2013-09-01 14:04:00,
2013-09-01 07:05:00,90.2,62.0,29.29,SW,233,0.9,1.1,39,-99.99,,,0.00,0,rob ver 1B,2013-09-01 14:05:00,
2013-09-01 07:06:00,90.1,62.2,29.29,WSW,239,0.9,1.1,39,-99.99,,,0.00,0,rob ver 1B,2013-09-01 14:06:00,
2013-09-01 07:07:00,87.2,65.1,29.32,West,273,1.0,1.9,47,-99.99,,,0.00,0,rob ver 1A,2013-09-01 14:07:00,
2013-09-01 07:08:00,89.7,62.3,29.29,WSW,245,1.0,1.2,40,-99.99,,,0.00,0,rob ver 1B,2013-09-01 14:08:00,
2013-09-01 07:09:00,89.7,62.3,29.29,WSW,244,1.1,1.3,40,-99.99,,,0.00,0,rob ver 1B,2013-09-01 14:09:00,
2013-09-01 07:10:00,89.5,62.3,29.29,SW,230,1.3,1.7,40,-99.99,,,0.00,0,rob ver 1B,2013-09-01 14:10:00,
2013-09-01 07:11:00,89.4,62.2,29.29,SW,226,1.4,1.8,40,-99.99,,,0.00,0,rob ver 1B,2013-09-01 14:11:00,
2013-09-01 07:12:00,87.5,65.1,29.32,WNW,296,1.7,2.1,47,-99.99,,,0.00,0,rob ver 1A,2013-09-01 14:12:00,
2013-09-01 07:13:00,89.1,62.0,29.29,SW,223,1.4,1.9,40,-99.99,,,0.00,0,rob ver 1B,2013-09-01 14:13:00,
2013-09-01 07:14:00,89.1,62.2,29.29,SW,229,1.2,1.6,40,-99.99,,,0.00,0,rob ver 1B,2013-09-01 14:14:00,
2013-09-01 07:15:00,89.2,62.1,29.29,WSW,237,1.0,1.5,40,-99.99,,,0.00,0,rob ver 1B,2013-09-01 14:15:00,
2013-09-01 07:16:00,89.4,62.2,29.29,SW,227,1.0,1.2,40,-99.99,,,0.00,0,rob ver 1B,2013-09-01 14:16:00,
2013-09-01 07:17:00,87.6,65.2,29.32,WSW,253,2.0,2.9,47,-99.99,,,0.00,0,rob ver 1A,2013-09-01 14:17:00,
2013-09-01 07:18:00,89.8,62.1,29.29,WNW,290,0.5,0.8,39,-99.99,,,0.00,0,rob ver 1B,2013-09-01 14:18:00,
2013-09-01 07:19:00,90.0,61.8,29.29,West,275,0.7,1.0,39,-99.99,,,0.00,0,rob ver 1B,2013-09-01 14:19:00,
2013-09-01 07:20:00,89.9,61.8,29.29,WSW,242,0.6,0.8,39,-99.99,,,0.00,0,rob ver 1B,2013-09-01 14:20:00,
2013-09-01 07:21:00,89.7,61.9,29.29,WSW,250,0.5,0.6,39,-99.99,,,0.00,0,rob ver 1B,2013-09-01 14:21:00,
2013-09-01 07:22:00,87.2,65.2,29.32,SW,216,2.3,2.9,48,-99.99,,,0.00,0,rob ver 1A,2013-09-01 14:22:00,
2013-09-01 07:23:00,89.5,61.9,29.29,WNW,300,0.5,0.8,39,-99.99,,,0.00,0,rob ver 1B,2013-09-01 14:23:00,
2013-09-01 07:24:00,89.5,61.8,29.29,NNW,329,0.6,0.9,39,-99.99,,,0.00,0,rob ver 1B,2013-09-01 14:24:00,
2013-09-01 07:25:00,89.5,61.8,29.29,NW,318,0.6,0.9,39,-99.99,,,0.00,0,rob ver 1B,2013-09-01 14:25:00,
2013-09-01 07:26:00,89.6,61.5,29.29,WNW,303,0.4,1.0,39,-99.99,,,0.00,0,rob ver 1B,2013-09-01 14:26:00,
2013-09-01 07:27:00,87.7,65.4,29.32,SW,225,1.4,2.0,47,-99.99,,,0.00,0,rob ver 1A,2013-09-01 14:27:00,
2013-09-01 07:28:00,89.5,61.7,29.29,NNW,335,1.1,1.3,39,-99.99,,,0.00,0,rob ver 1B,2013-09-01 14:28:00,
2013-09-01 07:29:00,89.2,61.7,29.29,NNW,334,1.3,1.6,40,-99.99,,,0.00,0,rob ver 1B,2013-09-01 14:29:00,
2013-09-01 07:30:00,89.1,61.8,29.29,North,0,1.4,1.7,40,-99.99,,,0.00,0,rob ver 1B,2013-09-01 14:30:00,
2013-09-01 07:31:00,89.2,61.8,29.29,North,353,1.3,1.6,39,-99.99,,,0.00,0,rob ver 1B,2013-09-01 14:31:00,
2013-09-01 07:32:00,87.8,65.2,29.32,West,264,1.4,2.1,47,-99.99,,,0.00,0,rob ver 1A,2013-09-01 14:32:00,
2013-09-01 07:33:00,89.6,61.5,29.32,NNW,338,1.2,1.5,39,-99.99,,,0.00,0,rob ver 1B,2013-09-01 14:33:00,
2013-09-01 07:34:00,89.9,61.6,29.32,North,352,0.7,1.1,38,-99.99,,,0.00,0,rob ver 1B,2013-09-01 14:34:00,
2013-09-01 07:35:00,90.2,61.7,29.29,NNW,347,0.6,0.9,38,-99.99,,,0.00,0,rob ver 1B,2013-09-01 14:35:00,
2013-09-01 07:36:00,90.5,61.7,29.29,NNW,331,0.6,1.0,37,-99.99,,,0.00,0,rob ver 1B,2013-09-01 14:36:00,
2013-09-01 07:37:00,88.1,65.3,29.32,SW,236,2.1,2.9,46,-99.99,,,0.00,0,rob ver 1A,2013-09-01 14:37:00,
2013-09-01 07:38:00,91.3,61.5,29.32,NW,325,0.8,1.2,37,-99.99,,,0.00,0,rob ver 1B,2013-09-01 14:38:00,
2013-09-01 07:39:00,91.4,61.5,29.29,North,350,0.7,1.0,37,-99.99,,,0.00,0,rob ver 1B,2013-09-01 14:39:00,
2013-09-01 07:40:00,91.6,61.2,29.29,North,353,0.8,1.2,35,-99.99,,,0.00,0,rob ver 1B,2013-09-01 14:40:00,
2013-09-01 07:41:00,91.8,60.9,29.29,NNE,29,0.5,1.1,35,-99.99,,,0.00,0,rob ver 1B,2013-09-01 14:41:00,
2013-09-01 07:42:00,88.5,65.3,29.32,WSW,246,2.2,2.8,46,-99.99,,,0.00,0,rob ver 1A,2013-09-01 14:42:00,
2013-09-01 07:43:00,92.2,60.6,29.32,NE,51,0.9,1.7,34,-99.99,,,0.00,0,rob ver 1B,2013-09-01 14:43:00,
2013-09-01 07:44:00,92.3,60.6,29.32,ENE,76,0.9,1.5,34,-99.99,,,0.00,0,rob ver 1B,2013-09-01 14:44:00,
2013-09-01 07:45:00,92.5,60.6,29.29,ENE,58,0.7,0.9,34,-99.99,,,0.00,0,rob ver 1B,2013-09-01 14:45:00,
2013-09-01 07:46:00,92.8,60.5,29.29,NNE,15,0.4,0.8,33,-99.99,,,0.00,0,rob ver 1B,2013-09-01 14:46:00,
2013-09-01 07:47:00,89.0,65.5,29.32,SSW,210,1.0,2.7,45,-99.99,,,0.00,0,rob ver 1A,2013-09-01 14:47:00,
2013-09-01 07:48:00,93.5,60.5,29.29,SW,219,0.6,1.2,33,-99.99,,,0.00,0,rob ver 1B,2013-09-01 14:48:00,
2013-09-01 07:49:00,93.9,60.7,29.29,SSW,203,1.5,2.0,33,-99.99,,,0.00,0,rob ver 1B,2013-09-01 14:49:00,
2013-09-01 07:50:00,93.8,60.6,29.29,SSE,164,1.4,2.0,33,-99.99,,,0.00,0,rob ver 1B,2013-09-01 14:50:00,
2013-09-01 07:51:00,93.6,60.6,29.32,SSE,161,1.1,1.6,33,-99.99,,,0.00,0,rob ver 1B,2013-09-01 14:51:00,
2013-09-01 07:52:00,93.3,60.5,29.32,SSE,165,0.8,1.1,33,-99.99,,,0.00,0,rob ver 1B,2013-09-01 14:52:00,
2013-09-01 07:53:00,88.9,65.1,29.32,East,98,0.9,1.9,45,-99.99,,,0.00,0,rob ver 1A,2013-09-01 14:53:00,
2013-09-01 07:54:00,93.5,60.4,29.29,SSW,192,2.3,3.0,33,-99.99,,,0.00,0,rob ver 1B,2013-09-01 14:54:00,
2013-09-01 07:55:00,93.4,60.5,29.32,SSW,201,1.9,2.5,33,-99.99,,,0.00,0,rob ver 1B,2013-09-01 14:55:00,
2013-09-01 07:56:00,93.3,60.5,29.32,South,180,1.7,2.0,33,-99.99,,,0.00,0,rob ver 1B,2013-09-01 14:56:00,
2013-09-01 07:57:00,93.2,60.6,29.32,SSE,155,2.5,3.4,34,-99.99,,,0.00,0,rob ver 1B,2013-09-01 14:57:00,
2013-09-01 07:58:00,90.1,65.0,29.32,SSW,206,2.4,3.3,43,-99.99,,,0.00,0,rob ver 1A,2013-09-01 14:58:00,
2013-09-01 07:59:00,92.4,60.3,29.29,SE,141,2.6,3.2,34,-99.99,,,0.00,0,rob ver 1B,2013-09-01 14:59:00,
2013-09-01 08:00:00,92.1,60.3,29.32,SSE,153,1.8,3.3,34,-99.99,,,0.00,0,rob ver 1B,2013-09-01 15:00:00,
2013-09-01 08:01:00,92.1,60.5,29.32,SSE,149,2.3,2.7,35,-99.99,,,0.00,0,rob ver 1B,2013-09-01 15:01:00,
2013-09-01 08:02:00,92.1,60.5,29.32,SE,134,1.4,2.0,34,-99.99,,,0.00,0,rob ver 1B,2013-09-01 15:02:00,
2013-09-01 08:03:00,90.5,65.2,29.32,SW,231,0.7,1.3,43,-99.99,,,0.00,0,rob ver 1A,2013-09-01 15:03:00,
2013-09-01 08:04:00,92.2,60.3,29.32,SE,134,1.6,2.3,34,-99.99,,,0.00,0,rob ver 1B,2013-09-01 15:04:00,
2013-09-01 08:05:00,92.2,60.4,29.32,SSE,147,1.7,2.2,34,-99.99,,,0.00,0,rob ver 1B,2013-09-01 15:05:00,
2013-09-01 08:06:00,92.4,60.4,29.32,SSW,194,2.4,3.2,34,-99.99,,,0.00,0,rob ver 1B,2013-09-01 15:06:00,
2013-09-01 08:07:00,92.6,60.2,29.32,South,171,2.8,3.5,34,-99.99,,,0.00,0,rob ver 1B,2013-09-01 15:07:00,
2013-09-01 08:08:00,90.0,65.2,29.32,SSE,167,2.4,3.2,44,-99.99,,,0.00,0,rob ver 1A,2013-09-01 15:08:00,
2013-09-01 08:09:00,92.6,60.3,29.32,SSE,166,1.9,3.0,34,-99.99,,,0.00,0,rob ver 1B,2013-09-01 15:09:00,
2013-09-01 08:10:00,92.8,60.4,29.32,South,173,2.3,3.9,34,-99.99,,,0.00,0,rob ver 1B,2013-09-01 15:10:00,
2013-09-01 08:11:00,92.9,60.4,29.32,SSW,194,2.9,3.8,33,-99.99,,,0.00,0,rob ver 1B,2013-09-01 15:11:00,
2013-09-01 08:12:00,93.0,60.5,29.32,SW,220,1.8,3.0,34,-99.99,,,0.00,0,rob ver 1B,2013-09-01 15:12:00,
2013-09-01 08:13:00,89.9,65.1,29.32,ESE,102,1.0,1.8,44,-99.99,,,0.00,0,rob ver 1A,2013-09-01 15:13:00,
2013-09-01 08:14:00,93.1,60.5,29.32,South,191,2.2,2.9,33,-99.99,,,0.00,0,rob ver 1B,2013-09-01 15:14:00,
2013-09-01 08:15:00,93.2,60.4,29.32,South,186,1.5,2.7,33,-99.99,,,0.00,0,rob ver 1B,2013-09-01 15:15:00,
2013-09-01 08:16:00,93.5,60.5,29.32,South,187,1.1,2.8,33,-99.99,,,0.00,0,rob ver 1B,2013-09-01 15:16:00,
2013-09-01 08:17:00,93.7,60.5,29.32,South,182,3.3,4.4,32,-99.99,,,0.00,0,rob ver 1B,2013-09-01 15:17:00,
2013-09-01 08:18:00,90.8,65.1,29.35,NE,37,1.0,1.7,42,-99.99,,,0.00,0,rob ver 1A,2013-09-01 15:18:00,
2013-09-01 08:19:00,93.5,60.4,29.32,SSW,208,3.0,4.2,33,-99.99,,,0.00,0,rob ver 1B,2013-09-01 15:19:00,
2013-09-01 08:20:00,93.5,60.5,29.32,South,175,2.8,3.9,33,-99.99,,,0.00,0,rob ver 1B,2013-09-01 15:20:00,
2013-09-01 08:21:00,93.5,60.4,29.32,SSW,207,2.1,3.1,33,-99.99,,,0.00,0,rob ver 1B,2013-09-01 15:21:00,
2013-09-01 08:22:00,93.6,60.5,29.32,SSW,207,2.5,4.3,32,-99.99,,,0.00,0,rob ver 1B,2013-09-01 15:22:00,
2013-09-01 08:23:00,90.5,64.9,29.35,East,94,3.2,4.5,43,-99.99,,,0.00,0,rob ver 1A,2013-09-01 15:23:00,
2013-09-01 08:24:00,93.8,60.2,29.32,South,186,3.1,4.1,32,-99.99,,,0.00,0,rob ver 1B,2013-09-01 15:24:00,
2013-09-01 08:25:00,93.9,60.1,29.32,South,172,2.4,4.2,32,-99.99,,,0.00,0,rob ver 1B,2013-09-01 15:25:00,
2013-09-01 08:26:00,93.9,60.2,29.32,South,177,2.3,3.7,32,-99.99,,,0.00,0,rob ver 1B,2013-09-01 15:26:00,
2013-09-01 08:27:00,93.9,60.2,29.32,SSE,148,3.9,4.7,32,-99.99,,,0.00,0,rob ver 1B,2013-09-01 15:27:00,
2013-09-01 08:28:00,91.2,64.8,29.35,SSE,157,1.9,2.6,41,-99.99,,,0.00,0,rob ver 1A,2013-09-01 15:28:00,
2013-09-01 08:29:00,93.3,60.2,29.32,SE,139,2.7,3.8,33,-99.99,,,0.00,0,rob ver 1B,2013-09-01 15:29:00,
2013-09-01 08:30:00,93.2,60.2,29.32,SE,131,2.0,2.8,33,-99.99,,,0.00,0,rob ver 1B,2013-09-01 15:30:00,
2013-09-01 08:31:00,93.3,60.3,29.32,SE,146,1.5,2.5,33,-99.99,,,0.00,0,rob ver 1B,2013-09-01 15:31:00,
2013-09-01 08:32:00,93.5,60.3,29.32,SSE,163,2.5,3.7,33,-99.99,,,0.00,0,rob ver 1B,2013-09-01 15:32:00,
2013-09-01 08:33:00,92.0,64.9,29.35,WSW,237,1.0,2.3,41,-99.99,,,0.00,0,rob ver 1A,2013-09-01 15:33:00,
2013-09-01 08:34:00,93.8,60.3,29.32,SE,128,2.3,3.0,32,-99.99,,,0.00,0,rob ver 1B,2013-09-01 15:34:00,
2013-09-01 08:35:00,93.7,60.2,29.32,SE,140,2.2,3.1,32,-99.99,,,0.00,0,rob ver 1B,2013-09-01 15:35:00,
2013-09-01 08:36:00,93.8,60.4,29.32,SSE,157,1.6,2.8,32,-99.99,,,0.00,0,rob ver 1B,2013-09-01 15:36:00,
2013-09-01 08:37:00,94.1,60.5,29.32,SE,139,1.5,2.3,32,-99.99,,,0.00,0,rob ver 1B,2013-09-01 15:37:00,
2013-09-01 08:38:00,94.3,60.5,29.32,South,172,3.0,4.9,32,-99.99,,,0.00,0,rob ver 1B,2013-09-01 15:38:00,
2013-09-01 08:39:00,92.0,65.2,29.35,SSW,198,1.1,2.2,41,-99.99,,,0.00,0,rob ver 1A,2013-09-01 15:39:00,
2013-09-01 08:40:00,94.4,60.4,29.32,SSW,194,3.1,4.4,32,-99.99,,,0.00,0,rob ver 1B,2013-09-01 15:40:00,
2013-09-01 08:41:00,94.5,60.4,29.32,SSW,211,2.3,2.9,32,-99.99,,,0.00,0,rob ver 1B,2013-09-01 15:41:00,
2013-09-01 08:42:00,94.6,60.4,29.32,SSW,208,2.1,3.2,32,-99.99,,,0.00,0,rob ver 1B,2013-09-01 15:42:00,
2013-09-01 08:43:00,94.7,60.4,29.32,SSE,151,2.4,4.5,31,-99.99,,,0.00,0,rob ver 1B,2013-09-01 15:43:00,
2013-09-01 08:44:00,91.4,64.8,29.35,NE,36,1.8,3.1,41,-99.99,,,0.00,0,rob ver 1A,2013-09-01 15:44:00,
2013-09-01 08:45:00,94.2,60.2,29.32,ESE,120,3.1,4.3,32,-99.99,,,0.00,0,rob ver 1B,2013-09-01 15:45:00,
2013-09-01 08:46:00,94.1,60.2,29.32,SE,137,3.0,4.3,32,-99.99,,,0.00,0,rob ver 1B,2013-09-01 15:46:00,
2013-09-01 08:47:00,94.2,60.2,29.32,South,182,1.7,3.2,32,-99.99,,,0.00,0,rob ver 1B,2013-09-01 15:47:00,
2013-09-01 08:48:00,94.4,60.3,29.32,SE,131,1.8,3.7,32,-99.99,,,0.00,0,rob ver 1B,2013-09-01 15:48:00,
2013-09-01 08:49:00,92.2,64.9,29.35,South,171,2.5,3.4,40,-99.99,,,0.00,0,rob ver 1A,2013-09-01 15:49:00,
2013-09-01 08:50:00,94.3,60.2,29.32,SSE,148,4.3,4.9,32,-99.99,,,0.00,0,rob ver 1B,2013-09-01 15:50:00,
2013-09-01 08:51:00,94.0,60.2,29.32,SSE,147,3.7,4.7,32,-99.99,,,0.00,0,rob ver 1B,2013-09-01 15:51:00,
2013-09-01 08:52:00,94.0,60.2,29.32,SSE,150,2.6,3.9,32,-99.99,,,0.00,0,rob ver 1B,2013-09-01 15:52:00,
2013-09-01 08:53:00,94.2,60.2,29.32,SSE,156,1.9,2.4,32,-99.99,,,0.00,0,rob ver 1B,2013-09-01 15:53:00,
2013-09-01 08:54:00,92.9,65.0,29.35,West,277,0.5,0.9,39,-99.99,,,0.00,0,rob ver 1A,2013-09-01 15:54:00,
2013-09-01 08:55:00,94.8,60.1,29.32,ESE,118,1.3,2.0,31,-99.99,,,0.00,0,rob ver 1B,2013-09-01 15:55:00,
2013-09-01 08:56:00,95.3,60.2,29.32,SSE,150,1.1,2.6,31,-99.99,,,0.00,0,rob ver 1B,2013-09-01 15:56:00,
2013-09-01 08:57:00,95.7,60.2,29.32,SSE,147,3.4,4.9,30,-99.99,,,0.00,0,rob ver 1B,2013-09-01 15:57:00,
2013-09-01 08:58:00,95.6,60.2,29.32,SE,133,3.9,4.7,31,-99.99,,,0.00,0,rob ver 1B,2013-09-01 15:58:00,
2013-09-01 08:59:00,92.6,64.9,29.35,South,173,1.1,2.1,40,-99.99,,,0.00,0,rob ver 1A,2013-09-01 15:59:00,
2013-09-01 09:00:00,94.6,60.1,29.32,SE,139,2.0,3.4,31,-99.99,,,0.00,0,rob ver 1B,2013-09-01 16:00:00,
2013-09-01 09:01:00,94.6,59.9,29.32,East,99,2.6,3.6,31,-99.99,,,0.00,0,rob ver 1B,2013-09-01 16:01:00,
2013-09-01 09:02:00,94.4,59.7,29.32,ENE,74,2.4,3.5,31,-99.99,,,0.00,0,rob ver 1B,2013-09-01 16:02:00,
2013-09-01 09:03:00,94.5,59.8,29.32,East,97,2.2,3.8,31,-99.99,,,0.00,0,rob ver 1B,2013-09-01 16:03:00,
2013-09-01 09:04:00,92.4,64.8,29.32,SE,141,1.7,3.0,40,-99.99,,,0.00,0,rob ver 1A,2013-09-01 16:04:00,
2013-09-01 09:05:00,94.5,59.9,29.32,SE,139,3.2,6.4,31,-99.99,,,0.00,0,rob ver 1B,2013-09-01 16:05:00,
2013-09-01 09:06:00,94.3,59.8,29.32,ESE,119,3.9,5.1,32,-99.99,,,0.00,0,rob ver 1B,2013-09-01 16:06:00,
2013-09-01 09:07:00,94.2,59.6,29.32,SE,142,3.1,4.5,31,-99.99,,,0.00,0,rob ver 1B,2013-09-01 16:07:00,
2013-09-01 09:08:00,94.2,59.4,29.32,SE,125,3.3,3.8,31,-99.99,,,0.00,0,rob ver 1B,2013-09-01 16:08:00,
2013-09-01 09:09:00,93.5,64.8,29.35,SSW,193,3.3,5.0,39,-99.99,,,0.00,0,rob ver 1A,2013-09-01 16:09:00,
2013-09-01 09:10:00,93.9,59.6,29.32,SE,134,1.7,3.3,31,-99.99,,,0.00,0,rob ver 1B,2013-09-01 16:10:00,
2013-09-01 09:11:00,94.1,59.7,29.32,SSE,150,3.0,3.6,32,-99.99,,,0.00,0,rob ver 1B,2013-09-01 16:11:00,
2013-09-01 09:12:00,94.0,59.7,29.32,SE,143,2.9,3.9,32,-99.99,,,0.00,0,rob ver 1B,2013-09-01 16:12:00,
2013-09-01 09:13:00,94.0,59.8,29.32,SE,135,2.5,3.6,32,-99.99,,,0.00,0,rob ver 1B,2013-09-01 16:13:00,
2013-09-01 09:14:00,93.0,65.0,29.35,West,262,1.3,2.4,39,-99.99,,,0.00,0,rob ver 1A,2013-09-01 16:14:00,
2013-09-01 09:15:00,94.0,59.8,29.32,SE,139,1.9,3.0,32,-99.99,,,0.00,0,rob ver 1B,2013-09-01 16:15:00,
2013-09-01 09:16:00,94.1,59.7,29.32,SE,134,3.3,5.2,31,-99.99,,,0.00,0,rob ver 1B,2013-09-01 16:16:00,
2013-09-01 09:17:00,94.1,59.6,29.32,SE,125,4.5,6.3,32,-99.99,,,0.00,0,rob ver 1B,2013-09-01 16:17:00,
2013-09-01 09:18:00,94.0,59.8,29.32,SE,134,4.0,5.7,32,-99.99,,,0.00,0,rob ver 1B,2013-09-01 16:18:00,
2013-09-01 09:19:00,92.7,64.9,29.35,NNW,345,1.0,2.5,39,-99.99,,,0.00,0,rob ver 1A,2013-09-01 16:19:00,
2013-09-01 09:20:00,94.2,59.6,29.32,SE,132,5.5,6.8,31,-99.99,,,0.00,0,rob ver 1B,2013-09-01 16:20:00,
2013-09-01 09:21:00,94.3,59.5,29.32,ESE,119,5.1,6.2,31,-99.99,,,0.00,0,rob ver 1B,2013-09-01 16:21:00,
2013-09-01 09:22:00,94.4,59.8,29.32,ESE,121,5.4,6.5,31,-99.99,,,0.00,0,rob ver 1B,2013-09-01 16:22:00,
2013-09-01 09:23:00,94.4,59.7,29.32,ESE,121,5.3,6.5,31,-99.99,,,0.00,0,rob ver 1B,2013-09-01 16:23:00,
2013-09-01 09:24:00,92.2,64.6,29.35,West,279,2.7,4.0,40,-99.99,,,0.00,0,rob ver 1A,2013-09-01 16:24:00,
2013-09-01 09:25:00,94.4,59.6,29.32,ESE,117,5.1,6.7,31,-99.99,,,0.00,0,rob ver 1B,2013-09-01 16:25:00,
2013-09-01 09:26:00,94.5,59.3,29.32,ESE,118,5.1,6.3,31,-99.99,,,0.00,0,rob ver 1B,2013-09-01 16:26:00,
2013-09-01 09:27:00,94.4,59.3,29.32,ESE,118,3.6,6.6,31,-99.99,,,0.00,0,rob ver 1B,2013-09-01 16:27:00,
2013-09-01 09:28:00,94.3,59.3,29.32,SE,131,6.2,7.2,31,-99.99,,,0.00,0,rob ver 1B,2013-09-01 16:28:00,
2013-09-01 09:29:00,93.1,64.2,29.35,ENE,70,1.0,1.7,38,-99.99,,,0.00,0,rob ver 1A,2013-09-01 16:29:00,
2013-09-01 09:30:00,94.2,59.6,29.35,SE,136,4.3,5.5,31,-99.99,,,0.00,0,rob ver 1B,2013-09-01 16:30:00,
2013-09-01 09:31:00,94.1,59.7,29.32,SE,139,3.5,5.1,31,-99.99,,,0.00,0,rob ver 1B,2013-09-01 16:31:00,
2013-09-01 09:32:00,94.1,59.7,29.32,SE,134,5.6,7.2,31,-99.99,,,0.00,0,rob ver 1B,2013-09-01 16:32:00,
2013-09-01 09:33:00,94.1,59.8,29.35,SE,146,5.1,6.6,32,-99.99,,,0.00,0,rob ver 1B,2013-09-01 16:33:00,
2013-09-01 09:34:00,94.7,64.3,29.35,ESE,109,1.1,3.3,36,-99.99,,,0.00,0,rob ver 1A,2013-09-01 16:34:00,
2013-09-01 09:35:00,94.2,59.8,29.32,SE,138,4.4,7.5,31,-99.99,,,0.00,0,rob ver 1B,2013-09-01 16:35:00,
2013-09-01 09:36:00,94.3,59.8,29.32,SE,128,5.7,7.4,31,-99.99,,,0.00,0,rob ver 1B,2013-09-01 16:36:00,
2013-09-01 09:37:00,94.2,59.7,29.32,SE,124,5.2,7.7,31,-99.99,,,0.00,0,rob ver 1B,2013-09-01 16:37:00,
2013-09-01 09:38:00,94.2,59.4,29.32,SE,144,6.0,7.6,31,-99.99,,,0.00,0,rob ver 1B,2013-09-01 16:38:00,
2013-09-01 09:39:00,94.1,59.6,29.35,SSE,148,5.8,8.1,31,-99.99,,,0.00,0,rob ver 1B,2013-09-01 16:39:00,
2013-09-01 09:40:00,94.2,64.6,29.35,West,275,3.3,4.9,37,-99.99,,,0.00,0,rob ver 1A,2013-09-01 16:40:00,
2013-09-01 09:41:00,94.3,59.5,29.32,SE,137,3.6,5.4,31,-99.99,,,0.00,0,rob ver 1B,2013-09-01 16:41:00,
2013-09-01 09:42:00,94.5,59.8,29.32,SE,144,4.9,7.2,31,-99.99,,,0.00,0,rob ver 1B,2013-09-01 16:42:00,
2013-09-01 09:43:00,94.6,59.8,29.32,SE,138,7.1,9.4,31,-99.99,,,0.00,0,rob ver 1B,2013-09-01 16:43:00,
2013-09-01 09:44:00,94.3,59.8,29.35,SE,141,7.1,9.1,31,-99.99,,,0.00,0,rob ver 1B,2013-09-01 16:44:00,
2013-09-01 09:45:00,93.7,64.7,29.35,SW,216,2.4,4.8,37,-99.99,,,0.00,0,rob ver 1A,2013-09-01 16:45:00,
2013-09-01 09:46:00,94.1,60.3,29.32,SE,130,4.6,5.5,32,-99.99,,,0.00,0,rob ver 1B,2013-09-01 16:46:00,
2013-09-01 09:47:00,94.1,60.1,29.32,SSE,158,5.4,6.8,32,-99.99,,,0.00,0,rob ver 1B,2013-09-01 16:47:00,
2013-09-01 09:48:00,94.2,60.2,29.32,SSE,165,4.6,5.5,32,-99.99,,,0.00,0,rob ver 1B,2013-09-01 16:48:00,
2013-09-01 09:49:00,94.3,60.2,29.35,SSE,165,4.6,5.8,32,-99.99,,,0.00,0,rob ver 1B,2013-09-01 16:49:00,
2013-09-01 09:50:00,93.6,64.6,29.35,WSW,246,5.6,7.9,38,-99.99,,,0.00,0,rob ver 1A,2013-09-01 16:50:00,
2013-09-01 09:51:00,94.5,60.0,29.32,SE,141,6.0,8.3,31,-99.99,,,0.00,0,rob ver 1B,2013-09-01 16:51:00,
2013-09-01 09:52:00,94.5,59.8,29.32,SSE,149,6.7,9.0,31,-99.99,,,0.00,0,rob ver 1B,2013-09-01 16:52:00,
2013-09-01 09:53:00,94.7,59.7,29.35,SSE,153,5.0,6.3,31,-99.99,,,0.00,0,rob ver 1B,2013-09-01 16:53:00,
2013-09-01 09:54:00,94.9,59.6,29.35,SE,144,5.7,7.5,30,-99.99,,,0.00,0,rob ver 1B,2013-09-01 16:54:00,
2013-09-01 09:55:00,93.8,64.2,29.35,SSE,165,5.1,7.3,37,-99.99,,,0.00,0,rob ver 1A,2013-09-01 16:55:00,
2013-09-01 09:56:00,95.1,59.1,29.32,South,172,7.6,8.7,30,-99.99,,,0.00,0,rob ver 1B,2013-09-01 16:56:00,
2013-09-01 09:57:00,95.3,59.1,29.32,South,182,5.8,7.0,29,-99.99,,,0.00,0,rob ver 1B,2013-09-01 16:57:00,
2013-09-01 09:58:00,95.5,58.9,29.32,South,183,4.6,7.4,29,-99.99,,,0.00,0,rob ver 1B,2013-09-01 16:58:00,
2013-09-01 09:59:00,95.4,59.1,29.35,South,176,5.4,8.2,29,-99.99,,,0.00,0,rob ver 1B,2013-09-01 16:59:00,
2013-09-01 10:00:00,93.9,64.6,29.35,SSW,212,3.1,4.5,37,-99.99,,,0.00,0,rob ver 1A,2013-09-01 17:00:00,
2013-09-01 10:01:00,95.4,59.4,29.32,South,185,6.4,7.8,30,-99.99,,,0.00,0,rob ver 1B,2013-09-01 17:01:00,
2013-09-01 10:02:00,95.4,59.6,29.32,SSE,165,4.5,6.0,30,-99.99,,,0.00,0,rob ver 1B,2013-09-01 17:02:00,
2013-09-01 10:03:00,95.6,59.6,29.32,SE,144,4.4,5.3,30,-99.99,,,0.00,0,rob ver 1B,2013-09-01 17:03:00,
2013-09-01 10:04:00,95.9,59.4,29.35,SE,146,4.7,6.4,29,-99.99,,,0.00,0,rob ver 1B,2013-09-01 17:04:00,
2013-09-01 10:05:00,94.8,64.3,29.35,South,180,2.7,4.4,36,-99.99,,,0.00,0,rob ver 1A,2013-09-01 17:05:00,
2013-09-01 10:06:00,96.4,58.0,29.32,South,184,5.8,7.7,27,-99.99,,,0.00,0,rob ver 1B,2013-09-01 17:06:00,
2013-09-01 10:07:00,96.5,58.0,29.32,SSW,198,5.2,7.7,27,-99.99,,,0.00,0,rob ver 1B,2013-09-01 17:07:00,
2013-09-01 10:08:00,96.8,58.3,29.32,SSW,193,4.9,7.6,28,-99.99,,,0.00,0,rob ver 1B,2013-09-01 17:08:00,
2013-09-01 10:09:00,97.0,58.5,29.32,SSE,147,7.0,8.1,28,-99.99,,,0.00,0,rob ver 1B,2013-09-01 17:09:00,
2013-09-01 10:10:00,94.0,64.5,29.35,SW,217,2.0,3.8,37,-99.99,,,0.00,0,rob ver 1A,2013-09-01 17:10:00,
2013-09-01 10:11:00,96.9,58.5,29.32,SSE,161,6.5,7.9,27,-99.99,,,0.00,0,rob ver 1B,2013-09-01 17:11:00,
2013-09-01 10:12:00,97.1,58.6,29.32,South,183,5.9,7.1,28,-99.99,,,0.00,0,rob ver 1B,2013-09-01 17:12:00,
2013-09-01 10:13:00,97.3,58.6,29.32,South,177,4.1,5.5,27,-99.99,,,0.00,0,rob ver 1B,2013-09-01 17:13:00,
2013-09-01 10:14:00,97.5,58.7,29.32,South,184,5.5,9.6,27,-99.99,,,0.00,0,rob ver 1B,2013-09-01 17:14:00,
2013-09-01 10:15:00,94.1,64.5,29.32,West,278,6.0,8.4,37,-99.99,,,0.00,0,rob ver 1A,2013-09-01 17:15:00,
2013-09-01 10:16:00,97.8,58.8,29.32,SSE,166,7.1,9.1,27,-99.99,,,0.00,0,rob ver 1B,2013-09-01 17:16:00,
2013-09-01 10:17:00,97.8,58.2,29.32,South,170,5.2,8.1,27,-99.99,,,0.00,0,rob ver 1B,2013-09-01 17:17:00,
2013-09-01 10:18:00,97.7,58.2,29.32,SSE,167,2.9,4.8,27,-99.99,,,0.00,0,rob ver 1B,2013-09-01 17:18:00,
2013-09-01 10:19:00,97.9,58.4,29.32,South,171,6.5,9.4,26,-99.99,,,0.00,0,rob ver 1B,2013-09-01 17:19:00,
2013-09-01 10:20:00,94.6,64.1,29.32,SW,233,3.0,6.5,37,-99.99,,,0.00,0,rob ver 1A,2013-09-01 17:20:00,
2013-09-01 10:21:00,97.8,58.0,29.32,SSE,164,7.4,10.5,27,-99.99,,,0.00,0,rob ver 1B,2013-09-01 17:21:00,
2013-09-01 10:22:00,97.8,58.1,29.32,SSE,166,5.8,8.9,27,-99.99,,,0.00,0,rob ver 1B,2013-09-01 17:22:00,
2013-09-01 10:23:00,97.8,58.1,29.32,South,180,5.2,8.1,26,-99.99,,,0.00,0,rob ver 1B,2013-09-01 17:23:00,
2013-09-01 10:24:00,98.0,58.0,29.32,South,183,5.7,8.4,26,-99.99,,,0.00,0,rob ver 1B,2013-09-01 17:24:00,
2013-09-01 10:25:00,94.3,64.2,29.35,WNW,289,3.4,6.6,37,-99.99,,,0.00,0,rob ver 1A,2013-09-01 17:25:00,
2013-09-01 10:26:00,98.0,57.6,29.32,SSE,164,5.5,8.0,26,-99.99,,,0.00,0,rob ver 1B,2013-09-01 17:26:00,
2013-09-01 10:27:00,98.0,57.6,29.32,South,190,5.1,6.4,26,-99.99,,,0.00,0,rob ver 1B,2013-09-01 17:27:00,
2013-09-01 10:28:00,98.1,57.6,29.32,SSE,158,6.7,8.4,26,-99.99,,,0.00,0,rob ver 1B,2013-09-01 17:28:00,
2013-09-01 10:29:00,98.0,57.8,29.32,SSE,160,7.0,9.9,26,-99.99,,,0.00,0,rob ver 1B,2013-09-01 17:29:00,
2013-09-01 10:30:00,94.2,64.5,29.32,West,270,6.4,10.5,37,-99.99,,,0.00,0,rob ver 1A,2013-09-01 17:30:00,
2013-09-01 10:31:00,98.0,58.0,29.32,SSE,161,5.7,7.0,26,-99.99,,,0.00,0,rob ver 1B,2013-09-01 17:31:00,
2013-09-01 10:32:00,98.2,57.8,29.32,SSW,192,5.4,8.2,26,-99.99,,,0.00,0,rob ver 1B,2013-09-01 17:32:00,
2013-09-01 10:33:00,98.3,57.8,29.32,SSE,162,5.2,6.8,26,-99.99,,,0.00,0,rob ver 1B,2013-09-01 17:33:00,
2013-09-01 10:34:00,98.6,57.8,29.32,South,180,4.8,7.4,25,-99.99,,,0.00,0,rob ver 1B,2013-09-01 17:34:00,
2013-09-01 10:35:00,94.9,64.5,29.32,West,276,1.5,2.6,36,-99.99,,,0.00,0,rob ver 1A,2013-09-01 17:35:00,
2013-09-01 10:36:00,98.6,58.2,29.32,SE,134,6.0,8.9,26,-99.99,,,0.00,0,rob ver 1B,2013-09-01 17:36:00,
2013-09-01 10:37:00,98.6,58.4,29.32,SE,130,5.7,8.4,26,-99.99,,,0.00,0,rob ver 1B,2013-09-01 17:37:00,
2013-09-01 10:38:00,98.6,58.4,29.32,SE,140,3.1,4.8,26,-99.99,,,0.00,0,rob ver 1B,2013-09-01 17:38:00,
2013-09-01 10:39:00,98.9,58.1,29.32,SSE,166,5.4,8.2,25,-99.99,,,0.00,0,rob ver 1B,2013-09-01 17:39:00,
2013-09-01 10:40:00,99.1,58.1,29.32,South,174,4.8,6.9,26,-99.99,,,0.00,0,rob ver 1B,2013-09-01 17:40:00,
2013-09-01 10:41:00,95.6,64.1,29.32,West,260,6.9,10.1,35,-99.99,,,0.00,0,rob ver 1A,2013-09-01 17:41:00,
2013-09-01 10:42:00,99.3,58.4,29.32,South,183,4.9,7.0,25,-99.99,,,0.00,0,rob ver 1B,2013-09-01 17:42:00,
2013-09-01 10:43:00,99.5,58.2,29.32,South,176,7.3,10.1,25,-99.99,,,0.00,0,rob ver 1B,2013-09-01 17:43:00,
2013-09-01 10:44:00,99.8,57.8,29.32,South,177,8.8,10.5,25,-99.99,,,0.00,0,rob ver 1B,2013-09-01 17:44:00,
2013-09-01 10:45:00,99.7,57.9,29.32,South,177,6.5,9.2,25,-99.99,,,0.00,0,rob ver 1B,2013-09-01 17:45:00,
2013-09-01 10:46:00,95.6,64.0,29.32,WSW,258,3.5,4.9,35,-99.99,,,0.00,0,rob ver 1A,2013-09-01 17:46:00,
2013-09-01 10:47:00,99.5,57.9,29.32,SSE,147,7.4,11.1,24,-99.99,,,0.00,0,rob ver 1B,2013-09-01 17:47:00,
2013-09-01 10:48:00,99.6,57.6,29.32,South,170,7.2,9.2,25,-99.99,,,0.00,0,rob ver 1B,2013-09-01 17:48:00,
2013-09-01 10:49:00,99.5,57.8,29.32,SSE,149,5.0,7.9,25,-99.99,,,0.00,0,rob ver 1B,2013-09-01 17:49:00,
2013-09-01 10:50:00,99.5,58.1,29.32,ESE,114,5.2,6.8,25,-99.99,,,0.00,0,rob ver 1B,2013-09-01 17:50:00,
2013-09-01 10:51:00,96.2,63.7,29.32,SSW,203,2.8,4.1,34,-99.99,,,0.00,0,rob ver 1A,2013-09-01 17:51:00,
2013-09-01 10:52:00,99.6,57.5,29.32,SSE,159,6.7,8.3,25,-99.99,,,0.00,0,rob ver 1B,2013-09-01 17:52:00,
2013-09-01 10:53:00,99.7,57.9,29.32,SE,142,6.8,9.9,25,-99.99,,,0.00,0,rob ver 1B,2013-09-01 17:53:00,
2013-09-01 10:54:00,99.8,58.0,29.32,SSE,166,3.0,4.8,25,-99.99,,,0.00,0,rob ver 1B,2013-09-01 17:54:00,
2013-09-01 10:56:00,96.1,63.4,29.32,WNW,291,5.1,10.7,33,-99.99,,,0.00,0,rob ver 1A,2013-09-01 17:56:00,
2013-09-01 10:57:00,100.3,59.2,29.32,SSW,211,8.5,10.6,25,-99.99,,,0.00,0,rob ver 1B,2013-09-01 17:57:00,
2013-09-01 10:58:00,100.3,59.2,29.32,SSW,212,7.6,9.3,25,-99.99,,,0.00,0,rob ver 1B,2013-09-01 17:58:00,
2013-09-01 10:59:00,100.3,59.2,29.32,SSW,207,6.3,8.2,26,-99.99,,,0.00,0,rob ver 1B,2013-09-01 17:59:00,
2013-09-01 11:00:00,100.6,59.3,29.32,South,170,8.1,10.6,25,-99.99,,,0.00,0,rob ver 1B,2013-09-01 18:00:00,
2013-09-01 11:01:00,95.6,63.0,29.32,West,262,5.2,7.4,33,-99.99,,,0.00,0,rob ver 1A,2013-09-01 18:01:00,
2013-09-01 11:02:00,100.3,59.1,29.32,SE,144,6.1,8.5,26,-99.99,,,0.00,0,rob ver 1B,2013-09-01 18:02:00,
2013-09-01 11:03:00,100.1,59.0,29.32,SE,145,6.1,7.8,25,-99.99,,,0.00,0,rob ver 1B,2013-09-01 18:03:00,
2013-09-01 11:04:00,99.9,59.0,29.32,SE,140,5.7,10.3,25,-99.99,,,0.00,0,rob ver 1B,2013-09-01 18:04:00,
2013-09-01 11:05:00,99.8,58.9,29.32,SE,138,4.7,8.3,25,-99.99,,,0.00,0,rob ver 1B,2013-09-01 18:05:00,
2013-09-01 11:06:00,96.1,62.4,29.32,SSW,210,6.7,9.4,33,-99.99,,,0.00,0,rob ver 1A,2013-09-01 18:06:00,
2013-09-01 11:07:00,100.4,58.9,29.32,SSW,197,5.3,8.1,25,-99.99,,,0.00,0,rob ver 1B,2013-09-01 18:07:00,
2013-09-01 11:08:00,100.5,58.8,29.32,SSE,159,8.0,12.1,25,-99.99,,,0.00,0,rob ver 1B,2013-09-01 18:08:00,
2013-09-01 11:09:00,100.2,58.9,29.32,SSE,157,6.9,9.5,25,-99.99,,,0.00,0,rob ver 1B,2013-09-01 18:09:00,
2013-09-01 11:10:00,100.4,58.7,29.32,SSE,167,10.9,13.0,25,-99.99,,,0.00,0,rob ver 1B,2013-09-01 18:10:00,
2013-09-01 11:11:00,96.7,62.2,29.32,SSE,158,3.9,6.5,32,-99.99,,,0.00,0,rob ver 1A,2013-09-01 18:11:00,
2013-09-01 11:12:00,99.9,58.7,29.32,SSE,154,7.9,10.0,25,-99.99,,,0.00,0,rob ver 1B,2013-09-01 18:12:00,
2013-09-01 11:13:00,100.0,58.5,29.32,South,184,5.3,8.1,25,-99.99,,,0.00,0,rob ver 1B,2013-09-01 18:13:00,
2013-09-01 11:14:00,100.4,58.6,29.32,SSE,156,4.0,6.2,25,-99.99,,,0.00,0,rob ver 1B,2013-09-01 18:14:00,
2013-09-01 11:15:00,100.5,58.2,29.32,ESE,121,7.5,9.3,24,-99.99,,,0.00,0,rob ver 1B,2013-09-01 18:15:00,
2013-09-01 11:16:00,100.5,58.1,29.32,SE,130,6.3,8.4,24,-99.99,,,0.00,0,rob ver 1B,2013-09-01 18:16:00,
2013-09-01 11:17:00,97.1,62.7,29.32,West,275,5.1,7.6,32,-99.99,,,0.00,0,rob ver 1A,2013-09-01 18:17:00,
2013-09-01 11:18:00,100.9,58.0,29.32,South,191,7.1,8.9,24,-99.99,,,0.00,0,rob ver 1B,2013-09-01 18:18:00,
2013-09-01 11:19:00,100.9,58.1,29.32,SSE,159,4.3,6.1,24,-99.99,,,0.00,0,rob ver 1B,2013-09-01 18:19:00,
2013-09-01 11:20:00,101.0,57.9,29.32,ESE,115,4.8,6.1,24,-99.99,,,0.00,0,rob ver 1B,2013-09-01 18:20:00,
2013-09-01 11:21:00,100.7,57.7,29.32,ESE,114,4.2,5.8,24,-99.99,,,0.00,0,rob ver 1B,2013-09-01 18:21:00,
2013-09-01 11:22:00,96.7,62.2,29.32,WSW,248,8.9,10.3,32,-99.99,,,0.00,0,rob ver 1A,2013-09-01 18:22:00,
2013-09-01 11:23:00,100.4,57.7,29.32,SE,136,7.3,10.3,24,-99.99,,,0.00,0,rob ver 1B,2013-09-01 18:23:00,
2013-09-01 11:24:00,100.2,57.7,29.32,SE,136,5.7,7.3,24,-99.99,,,0.00,0,rob ver 1B,2013-09-01 18:24:00,
2013-09-01 11:25:00,100.1,57.7,29.32,SE,125,2.9,4.7,24,-99.99,,,0.00,0,rob ver 1B,2013-09-01 18:25:00,
2013-09-01 11:26:00,100.3,57.8,29.32,SE,145,2.9,4.4,24,-99.99,,,0.00,0,rob ver 1B,2013-09-01 18:26:00,
2013-09-01 11:27:00,96.7,62.3,29.32,SW,235,2.7,4.4,32,-99.99,,,0.00,0,rob ver 1A,2013-09-01 18:27:00,
2013-09-01 11:28:00,101.0,57.6,29.32,SSE,148,7.8,11.1,23,-99.99,,,0.00,0,rob ver 1B,2013-09-01 18:28:00,
2013-09-01 11:29:00,100.8,57.6,29.32,SSE,160,6.8,9.0,24,-99.99,,,0.00,0,rob ver 1B,2013-09-01 18:29:00,
2013-09-01 11:30:00,100.7,57.5,29.32,SE,131,8.1,9.9,24,-99.99,,,0.00,0,rob ver 1B,2013-09-01 18:30:00,
2013-09-01 11:31:00,100.5,57.4,29.32,ESE,112,8.5,10.4,24,-99.99,,,0.00,0,rob ver 1B,2013-09-01 18:31:00,
2013-09-01 11:32:00,97.5,62.8,29.32,WSW,246,6.0,8.6,31,-99.99,,,0.00,0,rob ver 1A,2013-09-01 18:32:00,
2013-09-01 11:33:00,100.7,57.4,29.32,ESE,108,5.5,6.8,23,-99.99,,,0.00,0,rob ver 1B,2013-09-01 18:33:00,
2013-09-01 11:34:00,101.2,57.8,29.32,SE,146,6.4,9.0,23,-99.99,,,0.00,0,rob ver 1B,2013-09-01 18:34:00,
2013-09-01 11:35:00,101.4,57.9,29.32,SSE,165,9.4,12.6,23,-99.99,,,0.00,0,rob ver 1B,2013-09-01 18:35:00,
2013-09-01 11:36:00,101.1,57.6,29.32,SSE,159,8.2,11.6,24,-99.99,,,0.00,0,rob ver 1B,2013-09-01 18:36:00,
2013-09-01 11:37:00,97.4,60.8,29.32,South,178,4.5,6.3,29,-99.99,,,0.00,0,rob ver 1A,2013-09-01 18:37:00,
2013-09-01 11:38:00,100.7,57.0,29.32,SSE,157,7.9,9.8,23,-99.99,,,0.00,0,rob ver 1B,2013-09-01 18:38:00,
2013-09-01 11:39:00,100.5,57.1,29.32,SSE,165,6.9,8.7,23,-99.99,,,0.00,0,rob ver 1B,2013-09-01 18:39:00,
2013-09-01 11:40:00,100.6,57.3,29.32,SE,143,4.6,6.6,24,-99.99,,,0.00,0,rob ver 1B,2013-09-01 18:40:00,
2013-09-01 11:41:00,101.0,57.3,29.32,ESE,113,7.8,11.3,23,-99.99,,,0.00,0,rob ver 1B,2013-09-01 18:41:00,
2013-09-01 11:42:00,98.3,61.6,29.32,South,176,5.1,8.1,30,-99.99,,,0.00,0,rob ver 1A,2013-09-01 18:42:00,
2013-09-01 11:43:00,101.0,58.1,29.32,South,174,7.5,9.9,24,-99.99,,,0.00,0,rob ver 1B,2013-09-01 18:43:00,
2013-09-01 11:44:00,100.8,58.2,29.32,SSW,194,4.5,7.6,24,-99.99,,,0.00,0,rob ver 1B,2013-09-01 18:44:00,
2013-09-01 11:45:00,100.6,58.2,29.32,South,190,4.8,7.6,24,-99.99,,,0.00,0,rob ver 1B,2013-09-01 18:45:00,
2013-09-01 11:46:00,100.6,58.0,29.32,South,191,7.6,9.5,24,-99.99,,,0.00,0,rob ver 1B,2013-09-01 18:46:00,
2013-09-01 11:47:00,98.0,60.5,29.32,SW,233,5.4,8.1,29,-99.99,,,0.00,0,rob ver 1A,2013-09-01 18:47:00,
2013-09-01 11:48:00,101.1,57.9,29.32,SSE,168,5.0,7.7,23,-99.99,,,0.00,0,rob ver 1B,2013-09-01 18:48:00,
2013-09-01 11:49:00,101.2,56.9,29.32,ESE,109,5.1,7.2,23,-99.99,,,0.00,0,rob ver 1B,2013-09-01 18:49:00,
2013-09-01 11:50:00,101.3,57.1,29.32,SE,135,4.6,6.2,23,-99.99,,,0.00,0,rob ver 1B,2013-09-01 18:50:00,
2013-09-01 11:51:00,101.7,57.4,29.32,SSE,148,7.4,12.0,22,-99.99,,,0.00,0,rob ver 1B,2013-09-01 18:51:00,
2013-09-01 11:52:00,98.8,60.9,29.32,SSW,208,4.7,8.6,29,-99.99,,,0.00,0,rob ver 1A,2013-09-01 18:52:00,
2013-09-01 11:53:00,101.7,57.1,29.32,SE,139,7.8,9.5,23,-99.99,,,0.00,0,rob ver 1B,2013-09-01 18:53:00,
2013-09-01 11:54:00,101.5,57.5,29.32,SE,145,6.4,9.5,23,-99.99,,,0.00,0,rob ver 1B,2013-09-01 18:54:00,
2013-09-01 11:55:00,101.3,57.2,29.32,East,95,7.1,11.4,23,-99.99,,,0.00,0,rob ver 1B,2013-09-01 18:55:00,
2013-09-01 11:56:00,101.2,57.5,29.32,SSE,158,6.7,12.4,23,-99.99,,,0.00,0,rob ver 1B,2013-09-01 18:56:00,
2013-09-01 11:57:00,98.4,61.2,29.32,South,173,5.6,7.8,29,-99.99,,,0.00,0,rob ver 1A,2013-09-01 18:57:00,
2013-09-01 11:58:00,101.9,57.7,29.29,SSW,198,10.0,13.1,23,-99.99,,,0.00,0,rob ver 1B,2013-09-01 18:58:00,
2013-09-01 11:59:00,101.8,57.8,29.29,SSW,202,7.2,10.5,23,-99.99,,,0.00,0,rob ver 1B,2013-09-01 18:59:00,
2013-09-01 12:00:00,101.8,57.9,29.32,South,176,3.7,5.5,23,-99.99,,,0.00,0,rob ver 1B,2013-09-01 19:00:00,
2013-09-01 12:01:00,101.9,57.9,29.32,South,184,4.5,8.7,23,-99.99,,,0.00,0,rob ver 1B,2013-09-01 19:01:00,
2013-09-01 12:02:00,102.4,57.6,29.32,South,191,7.9,10.5,22,-99.99,,,0.00,0,rob ver 1B,2013-09-01 19:02:00,
2013-09-01 12:03:00,98.1,58.7,29.32,ESE,122,5.2,7.1,26,-99.99,,,0.00,0,rob ver 1A,2013-09-01 19:03:00,
2013-09-01 12:04:00,102.5,57.5,29.29,SSE,165,10.6,13.4,22,-99.99,,,0.00,0,rob ver 1B,2013-09-01 19:04:00,
2013-09-01 12:05:00,102.8,57.4,29.29,SSE,164,9.9,13.6,22,-99.99,,,0.00,0,rob ver 1B,2013-09-01 19:05:00,
2013-09-01 12:06:00,102.9,57.2,29.29,SE,142,8.9,10.9,22,-99.99,,,0.00,0,rob ver 1B,2013-09-01 19:06:00,
2013-09-01 12:07:00,102.6,57.4,29.29,SE,134,6.6,8.1,22,-99.99,,,0.00,0,rob ver 1B,2013-09-01 19:07:00,
2013-09-01 12:08:00,98.7,59.9,29.32,SSW,208,1.8,3.5,27,-99.99,,,0.00,0,rob ver 1A,2013-09-01 19:08:00,
2013-09-01 12:09:00,102.4,57.4,29.29,ENE,67,1.4,2.9,22,-99.99,,,0.00,0,rob ver 1B,2013-09-01 19:09:00,
2013-09-01 12:10:00,102.7,57.3,29.29,SE,131,5.2,8.7,22,-99.99,,,0.00,0,rob ver 1B,2013-09-01 19:10:00,
2013-09-01 12:11:00,102.7,57.4,29.29,SSE,159,6.9,9.9,22,-99.99,,,0.00,0,rob ver 1B,2013-09-01 19:11:00,
2013-09-01 12:12:00,102.9,57.3,29.29,SSW,192,8.0,14.2,22,-99.99,,,0.00,0,rob ver 1B,2013-09-01 19:12:00,
2013-09-01 12:13:00,99.8,60.5,29.32,SE,125,3.4,6.6,27,-99.99,,,0.00,0,rob ver 1A,2013-09-01 19:13:00,
2013-09-01 12:14:00,102.6,57.4,29.29,WSW,238,6.4,10.3,23,-99.99,,,0.00,0,rob ver 1B,2013-09-01 19:14:00,
2013-09-01 12:15:00,102.2,57.5,29.29,SW,224,5.3,6.8,23,-99.99,,,0.00,0,rob ver 1B,2013-09-01 19:15:00,
2013-09-01 12:16:00,102.3,57.3,29.29,South,176,7.7,12.1,22,-99.99,,,0.00,0,rob ver 1B,2013-09-01 19:16:00,
2013-09-01 12:17:00,102.3,57.1,29.29,South,171,5.0,6.6,22,-99.99,,,0.00,0,rob ver 1B,2013-09-01 19:17:00,
2013-09-01 12:18:00,99.8,60.1,29.32,SSW,204,7.7,10.4,26,-99.99,,,0.00,0,rob ver 1A,2013-09-01 19:18:00,
2013-09-01 12:19:00,102.1,57.5,29.29,South,171,10.2,12.4,23,-99.99,,,0.00,0,rob ver 1B,2013-09-01 19:19:00,
2013-09-01 12:20:00,102.1,57.6,29.29,SSE,159,9.2,11.1,23,-99.99,,,0.00,0,rob ver 1B,2013-09-01 19:20:00,
2013-09-01 12:21:00,101.9,57.6,29.29,SSE,161,9.4,12.5,23,-99.99,,,0.00,0,rob ver 1B,2013-09-01 19:21:00,
2013-09-01 12:22:00,101.9,57.6,29.29,SSE,168,9.5,13.8,23,-99.99,,,0.00,0,rob ver 1B,2013-09-01 19:22:00,
2013-09-01 12:23:00,99.8,60.0,29.32,SW,229,5.0,7.4,27,-99.99,,,0.00,0,rob ver 1A,2013-09-01 19:23:00,
2013-09-01 12:24:00,101.9,57.6,29.29,SE,144,10.7,12.6,23,-99.99,,,0.00,0,rob ver 1B,2013-09-01 19:24:00,
2013-09-01 12:25:00,102.0,57.5,29.29,SE,126,7.2,9.8,23,-99.99,,,0.00,0,rob ver 1B,2013-09-01 19:25:00,
2013-09-01 12:26:00,101.6,57.4,29.29,East,93,2.6,6.0,23,-99.99,,,0.00,0,rob ver 1B,2013-09-01 19:26:00,
2013-09-01 12:27:00,101.8,57.5,29.29,South,172,7.5,12.6,23,-99.99,,,0.00,0,rob ver 1B,2013-09-01 19:27:00,
2013-09-01 12:28:00,100.4,59.3,29.32,South,178,8.4,13.5,25,-99.99,,,0.00,0,rob ver 1A,2013-09-01 19:28:00,
2013-09-01 12:29:00,102.0,57.5,29.29,South,173,5.2,8.5,23,-99.99,,,0.00,0,rob ver 1B,2013-09-01 19:29:00,
2013-09-01 12:30:00,102.3,57.4,29.29,SSE,166,5.0,7.0,23,-99.99,,,0.00,0,rob ver 1B,2013-09-01 19:30:00,
2013-09-01 12:31:00,102.3,57.5,29.29,South,178,6.9,11.8,23,-99.99,,,0.00,0,rob ver 1B,2013-09-01 19:31:00,
2013-09-01 12:32:00,102.3,57.4,29.29,South,181,10.2,14.2,22,-99.99,,,0.00,0,rob ver 1B,2013-09-01 19:32:00,
2013-09-01 12:33:00,100.9,58.2,29.32,SSE,161,8.7,12.2,24,-99.99,,,0.00,0,rob ver 1A,2013-09-01 19:33:00,
2013-09-01 12:34:00,102.1,57.6,29.29,SSW,198,5.3,9.7,23,-99.99,,,0.00,0,rob ver 1B,2013-09-01 19:34:00,
2013-09-01 12:35:00,102.1,57.3,29.29,SSE,156,9.2,13.0,23,-99.99,,,0.00,0,rob ver 1B,2013-09-01 19:35:00,
2013-09-01 12:36:00,101.7,57.5,29.29,SE,146,9.1,12.2,23,-99.99,,,0.00,0,rob ver 1B,2013-09-01 19:36:00,
2013-09-01 12:37:00,101.5,57.6,29.29,SSE,159,6.4,8.4,23,-99.99,,,0.00,0,rob ver 1B,2013-09-01 19:37:00,
2013-09-01 12:38:00,100.8,57.1,29.32,SE,145,5.6,8.9,23,-99.99,,,0.00,0,rob ver 1A,2013-09-01 19:38:00,
2013-09-01 12:39:00,102.2,57.7,29.29,South,180,8.8,13.6,23,-99.99,,,0.00,0,rob ver 1B,2013-09-01 19:39:00,
2013-09-01 12:40:00,102.6,57.6,29.29,SSW,204,10.9,13.0,22,-99.99,,,0.00,0,rob ver 1B,2013-09-01 19:40:00,
2013-09-01 12:41:00,102.6,57.8,29.29,SW,219,7.2,10.3,23,-99.99,,,0.00,0,rob ver 1B,2013-09-01 19:41:00,
2013-09-01 12:42:00,102.6,57.8,29.29,SSW,193,6.4,8.4,22,-99.99,,,0.00,0,rob ver 1B,2013-09-01 19:42:00,
2013-09-01 12:43:00,99.9,57.9,29.32,SW,222,4.3,6.3,25,-99.99,,,0.00,0,rob ver 1A,2013-09-01 19:43:00,
2013-09-01 12:44:00,102.9,58.2,29.29,SSE,147,8.3,12.3,22,-99.99,,,0.00,0,rob ver 1B,2013-09-01 19:44:00,
2013-09-01 12:45:00,103.2,57.7,29.29,SE,136,11.7,14.3,22,-99.99,,,0.00,0,rob ver 1B,2013-09-01 19:45:00,
2013-09-01 12:46:00,102.7,57.8,29.29,ESE,108,9.4,12.9,23,-99.99,,,0.00,0,rob ver 1B,2013-09-01 19:46:00,
2013-09-01 12:47:00,102.3,57.8,29.29,SE,134,8.4,16.1,23,-99.99,,,0.00,0,rob ver 1B,2013-09-01 19:47:00,
2013-09-01 12:48:00,102.6,57.8,29.29,South,169,10.4,15.5,23,-99.99,,,0.00,0,rob ver 1B,2013-09-01 19:48:00,
2013-09-01 12:49:00,100.5,57.8,29.32,South,169,4.9,8.3,24,-99.99,,,0.00,0,rob ver 1A,2013-09-01 19:49:00,
2013-09-01 12:50:00,102.8,58.1,29.29,SSE,149,12.1,16.6,23,-99.99,,,0.00,0,rob ver 1B,2013-09-01 19:50:00,
2013-09-01 12:51:00,102.7,58.1,29.29,SE,144,13.5,17.9,23,-99.99,,,0.00,0,rob ver 1B,2013-09-01 19:51:00,
2013-09-01 12:52:00,103.0,57.8,29.29,SE,143,11.8,18.8,22,-99.99,,,0.00,0,rob ver 1B,2013-09-01 19:52:00,
2013-09-01 12:53:00,103.4,57.6,29.29,South,171,11.0,14.5,22,-99.99,,,0.00,0,rob ver 1B,2013-09-01 19:53:00,
2013-09-01 12:54:00,101.1,55.1,29.29,SSW,197,11.1,14.6,20,-99.99,,,0.00,0,rob ver 1A,2013-09-01 19:54:00,
2013-09-01 12:55:00,103.1,57.6,29.29,South,189,8.1,9.5,22,-99.99,,,0.00,0,rob ver 1B,2013-09-01 19:55:00,
2013-09-01 12:56:00,103.0,57.7,29.29,SSW,192,7.9,11.2,22,-99.99,,,0.00,0,rob ver 1B,2013-09-01 19:56:00,
2013-09-01 12:57:00,102.9,57.7,29.29,SSW,208,3.7,6.0,22,-99.99,,,0.00,0,rob ver 1B,2013-09-01 19:57:00,
2013-09-01 12:58:00,103.2,57.7,29.29,SW,217,3.0,5.0,22,-99.99,,,0.00,0,rob ver 1B,2013-09-01 19:58:00,
2013-09-01 12:59:00,100.9,56.6,29.32,SW,221,6.0,8.0,22,-99.99,,,0.00,0,rob ver 1A,2013-09-01 19:59:00,
2013-09-01 13:00:00,103.5,57.4,29.29,SSW,199,8.0,10.5,22,-99.99,,,0.00,0,rob ver 1B,2013-09-01 20:00:00,
2013-09-01 13:01:00,103.5,57.4,29.29,SW,231,5.0,7.1,22,-99.99,,,0.00,0,rob ver 1B,2013-09-01 20:01:00,
2013-09-01 13:02:00,103.3,57.3,29.29,WSW,252,6.2,7.7,22,-99.99,,,0.00,0,rob ver 1B,2013-09-01 20:02:00,
2013-09-01 13:03:00,103.0,57.3,29.29,WSW,241,5.7,7.7,22,-99.99,,,0.00,0,rob ver 1B,2013-09-01 20:03:00,
2013-09-01 13:04:00,101.3,56.4,29.29,West,264,3.7,6.9,22,-99.99,,,0.00,0,rob ver 1A,2013-09-01 20:04:00,
2013-09-01 13:05:00,103.1,57.7,29.29,SE,144,11.4,18.3,22,-99.99,,,0.00,0,rob ver 1B,2013-09-01 20:05:00,
2013-09-01 13:06:00,103.0,56.8,29.29,SE,133,8.5,12.2,22,-99.99,,,0.00,0,rob ver 1B,2013-09-01 20:06:00,
2013-09-01 13:07:00,102.7,57.2,29.29,SE,138,4.8,12.6,22,-99.99,,,0.00,0,rob ver 1B,2013-09-01 20:07:00,
2013-09-01 13:08:00,102.7,57.2,29.29,SSE,152,9.9,14.8,22,-99.99,,,0.00,0,rob ver 1B,2013-09-01 20:08:00,
2013-09-01 13:09:00,101.6,55.1,29.29,SSE,157,7.9,10.5,21,-99.99,,,0.00,0,rob ver 1A,2013-09-01 20:09:00,
2013-09-01 13:10:00,102.6,57.1,29.29,SE,132,8.2,13.5,22,-99.99,,,0.00,0,rob ver 1B,2013-09-01 20:10:00,
2013-09-01 13:11:00,102.3,57.0,29.29,ESE,104,7.6,12.7,22,-99.99,,,0.00,0,rob ver 1B,2013-09-01 20:11:00,
2013-09-01 13:12:00,102.0,57.0,29.29,ENE,67,5.9,9.2,22,-99.99,,,0.00,0,rob ver 1B,2013-09-01 20:12:00,
2013-09-01 13:13:00,102.1,57.1,29.29,ESE,113,5.5,8.7,22,-99.99,,,0.00,0,rob ver 1B,2013-09-01 20:13:00,
2013-09-01 13:14:00,101.1,55.9,29.29,WNW,285,5.6,7.0,22,-99.99,,,0.00,0,rob ver 1A,2013-09-01 20:14:00,
2013-09-01 13:15:00,102.8,57.3,29.29,SSE,158,7.7,10.0,22,-99.99,,,0.00,0,rob ver 1B,2013-09-01 20:15:00,
2013-09-01 13:16:00,102.7,57.4,29.29,South,185,5.3,8.8,22,-99.99,,,0.00,0,rob ver 1B,2013-09-01 20:16:00,
2013-09-01 13:17:00,103.0,57.4,29.29,SSE,167,10.0,12.6,22,-99.99,,,0.00,0,rob ver 1B,2013-09-01 20:17:00,
2013-09-01 13:18:00,103.3,57.4,29.29,South,176,9.5,14.2,21,-99.99,,,0.00,0,rob ver 1B,2013-09-01 20:18:00,
2013-09-01 13:19:00,101.6,55.7,29.29,South,173,10.1,14.1,21,-99.99,,,0.00,0,rob ver 1A,2013-09-01 20:19:00,
2013-09-01 13:20:00,103.9,57.1,29.29,SSW,198,9.1,13.2,21,-99.99,,,0.00,0,rob ver 1B,2013-09-01 20:20:00,
2013-09-01 13:21:00,103.7,57.3,29.29,South,181,8.0,10.6,22,-99.99,,,0.00,0,rob ver 1B,2013-09-01 20:21:00,
2013-09-01 13:22:00,103.5,57.3,29.29,SSW,201,2.7,5.4,22,-99.99,,,0.00,0,rob ver 1B,2013-09-01 20:22:00,
2013-09-01 13:23:00,103.5,57.3,29.29,SSW,193,5.0,10.1,22,-99.99,,,0.00,0,rob ver 1B,2013-09-01 20:23:00,
2013-09-01 13:24:00,101.8,55.8,29.29,SSE,164,6.3,10.1,22,-99.99,,,0.00,0,rob ver 1A,2013-09-01 20:24:00,
2013-09-01 13:25:00,104.1,56.9,29.26,South,184,11.5,16.8,21,-99.99,,,0.00,0,rob ver 1B,2013-09-01 20:25:00,
2013-09-01 13:26:00,103.8,57.0,29.26,SSW,204,9.0,14.2,21,-99.99,,,0.00,0,rob ver 1B,2013-09-01 20:26:00,
2013-09-01 13:27:00,103.7,57.1,29.26,SSW,207,6.8,8.9,21,-99.99,,,0.00,0,rob ver 1B,2013-09-01 20:27:00,
2013-09-01 13:28:00,103.8,57.2,29.26,SSW,205,4.6,8.4,21,-99.99,,,0.00,0,rob ver 1B,2013-09-01 20:28:00,
2013-09-01 13:29:00,103.9,57.0,29.26,SW,231,7.7,12.1,21,-99.99,,,0.00,0,rob ver 1B,2013-09-01 20:29:00,
2013-09-01 13:30:00,101.8,57.0,29.29,SSW,209,7.0,10.3,22,-99.99,,,0.00,0,rob ver 1A,2013-09-01 20:30:00,
2013-09-01 13:31:00,103.9,57.0,29.26,SW,214,6.6,9.0,21,-99.99,,,0.00,0,rob ver 1B,2013-09-01 20:31:00,
2013-09-01 13:32:00,104.0,56.9,29.26,SW,222,7.0,10.3,21,-99.99,,,0.00,0,rob ver 1B,2013-09-01 20:32:00,
2013-09-01 13:33:00,104.0,57.1,29.26,SSW,209,5.9,11.5,21,-99.99,,,0.00,0,rob ver 1B,2013-09-01 20:33:00,
2013-09-01 13:34:00,104.2,56.9,29.26,SSW,200,7.4,12.3,21,-99.99,,,0.00,0,rob ver 1B,2013-09-01 20:34:00,
2013-09-01 13:35:00,102.0,57.2,29.29,South,182,6.9,11.0,22,-99.99,,,0.00,0,rob ver 1A,2013-09-01 20:35:00,
2013-09-01 13:36:00,104.2,57.0,29.26,South,180,6.3,8.9,21,-99.99,,,0.00,0,rob ver 1B,2013-09-01 20:36:00,
2013-09-01 13:37:00,104.3,57.2,29.26,SSW,192,9.7,13.4,21,-99.99,,,0.00,0,rob ver 1B,2013-09-01 20:37:00,
2013-09-01 13:38:00,104.4,57.3,29.26,South,175,12.0,15.0,21,-99.99,,,0.00,0,rob ver 1B,2013-09-01 20:38:00,
2013-09-01 13:39:00,104.1,57.4,29.26,South,169,8.4,14.4,21,-99.99,,,0.00,0,rob ver 1B,2013-09-01 20:39:00,
2013-09-01 13:40:00,102.7,56.5,29.29,South,180,6.4,8.9,22,-99.99,,,0.00,0,rob ver 1A,2013-09-01 20:40:00,
2013-09-01 13:41:00,103.9,57.4,29.26,SSW,198,9.7,16.0,21,-99.99,,,0.00,0,rob ver 1B,2013-09-01 20:41:00,
2013-09-01 13:42:00,104.2,57.0,29.26,South,184,14.6,17.3,21,-99.99,,,0.00,0,rob ver 1B,2013-09-01 20:42:00,
2013-09-01 13:43:00,104.0,57.0,29.26,SSW,207,8.6,12.8,21,-99.99,,,0.00,0,rob ver 1B,2013-09-01 20:43:00,
2013-09-01 13:44:00,103.9,57.1,29.26,SSW,205,6.9,9.6,21,-99.99,,,0.00,0,rob ver 1B,2013-09-01 20:44:00,
2013-09-01 13:45:00,101.5,56.7,29.29,WNW,290,5.5,7.8,22,-99.99,,,0.00,0,rob ver 1A,2013-09-01 20:45:00,
2013-09-01 13:46:00,103.7,57.1,29.26,SE,132,11.1,15.8,22,-99.99,,,0.00,0,rob ver 1B,2013-09-01 20:46:00,
2013-09-01 13:47:00,103.6,57.1,29.26,ESE,123,12.6,15.1,21,-99.99,,,0.00,0,rob ver 1B,2013-09-01 20:47:00,
2013-09-01 13:48:00,103.4,56.9,29.26,ESE,108,8.9,13.6,21,-99.99,,,0.00,0,rob ver 1B,2013-09-01 20:48:00,
2013-09-01 13:49:00,103.0,56.9,29.26,East,86,6.6,8.9,22,-99.99,,,0.00,0,rob ver 1B,2013-09-01 20:49:00,
2013-09-01 13:50:00,102.5,56.4,29.29,West,279,5.7,10.4,22,-99.99,,,0.00,0,rob ver 1A,2013-09-01 20:50:00,
2013-09-01 13:51:00,103.1,56.9,29.26,ENE,69,3.7,6.8,21,-99.99,,,0.00,0,rob ver 1B,2013-09-01 20:51:00,
2013-09-01 13:52:00,103.3,56.8,29.26,NE,51,2.0,4.1,21,-99.99,,,0.00,0,rob ver 1B,2013-09-01 20:52:00,
2013-09-01 13:53:00,103.7,57.0,29.26,SE,135,2.4,4.0,21,-99.99,,,0.00,0,rob ver 1B,2013-09-01 20:53:00,
2013-09-01 13:54:00,104.1,56.9,29.26,SE,146,5.5,8.4,21,-99.99,,,0.00,0,rob ver 1B,2013-09-01 20:54:00,
2013-09-01 13:55:00,102.3,56.6,29.29,SSW,197,10.2,12.6,22,-99.99,,,0.00,0,rob ver 1A,2013-09-01 20:55:00,
2013-09-01 13:56:00,103.9,56.9,29.26,North,8,4.1,6.8,21,-99.99,,,0.00,0,rob ver 1B,2013-09-01 20:56:00,
2013-09-01 13:57:00,103.6,56.7,29.26,NNE,26,4.7,6.2,21,-99.99,,,0.00,0,rob ver 1B,2013-09-01 20:57:00,
2013-09-01 13:58:00,103.5,56.7,29.26,East,95,1.9,3.2,21,-99.99,,,0.00,0,rob ver 1B,2013-09-01 20:58:00,
2013-09-01 13:59:00,103.7,57.1,29.26,SSE,167,4.4,10.0,22,-99.99,,,0.00,0,rob ver 1B,2013-09-01 20:59:00,
2013-09-01 14:00:00,102.3,57.0,29.29,SSW,211,9.9,16.1,22,-99.99,,,0.00,0,rob ver 1A,2013-09-01 21:00:00,
2013-09-01 14:01:00,104.6,57.6,29.26,South,181,12.3,16.5,21,-99.99,,,0.00,0,rob ver 1B,2013-09-01 21:01:00,
2013-09-01 14:02:00,104.5,57.6,29.26,South,170,13.0,17.7,21,-99.99,,,0.00,0,rob ver 1B,2013-09-01 21:02:00,
2013-09-01 14:03:00,104.1,57.8,29.26,SSE,162,12.5,15.3,22,-99.99,,,0.00,0,rob ver 1B,2013-09-01 21:03:00,
2013-09-01 14:04:00,103.8,57.8,29.26,South,182,10.4,14.1,22,-99.99,,,0.00,0,rob ver 1B,2013-09-01 21:04:00,
2013-09-01 14:05:00,101.7,57.0,29.29,SE,139,4.8,7.7,22,-99.99,,,0.00,0,rob ver 1A,2013-09-01 21:05:00,
2013-09-01 14:06:00,104.1,58.0,29.26,SSE,162,6.9,11.3,22,-99.99,,,0.00,0,rob ver 1B,2013-09-01 21:06:00,
2013-09-01 14:07:00,104.0,57.9,29.26,SE,136,8.1,13.2,22,-99.99,,,0.00,0,rob ver 1B,2013-09-01 21:07:00,
2013-09-01 14:08:00,103.8,58.2,29.26,ESE,114,4.4,8.0,22,-99.99,,,0.00,0,rob ver 1B,2013-09-01 21:08:00,
2013-09-01 14:09:00,103.7,58.0,29.26,ESE,105,10.7,14.0,22,-99.99,,,0.00,0,rob ver 1B,2013-09-01 21:09:00,
2013-09-01 14:10:00,103.4,58.0,29.26,ESE,113,10.5,15.1,22,-99.99,,,0.00,0,rob ver 1B,2013-09-01 21:10:00,
2013-09-01 14:11:00,101.4,56.8,29.26,SSE,149,5.0,7.3,23,-99.99,,,0.00,0,rob ver 1A,2013-09-01 21:11:00,
2013-09-01 14:12:00,103.4,58.0,29.26,SE,136,7.7,11.0,22,-99.99,,,0.00,0,rob ver 1B,2013-09-01 21:12:00,
2013-09-01 14:13:00,103.8,57.7,29.26,South,173,7.6,11.2,22,-99.99,,,0.00,0,rob ver 1B,2013-09-01 21:13:00,
2013-09-01 14:14:00,103.9,57.8,29.26,South,183,7.6,11.1,22,-99.99,,,0.00,0,rob ver 1B,2013-09-01 21:14:00,
2013-09-01 14:15:00,104.0,57.8,29.26,SSE,165,10.1,13.5,22,-99.99,,,0.00,0,rob ver 1B,2013-09-01 21:15:00,
2013-09-01 14:16:00,102.4,56.5,29.26,SSW,202,10.6,12.8,22,-99.99,,,0.00,0,rob ver 1A,2013-09-01 21:16:00,
2013-09-01 14:17:00,103.5,57.8,29.26,SE,124,5.5,8.5,22,-99.99,,,0.00,0,rob ver 1B,2013-09-01 21:17:00,
2013-09-01 14:18:00,103.3,57.9,29.26,South,170,3.4,6.7,22,-99.99,,,0.00,0,rob ver 1B,2013-09-01 21:18:00,
2013-09-01 14:19:00,103.3,57.9,29.26,South,187,6.2,10.4,22,-99.99,,,0.00,0,rob ver 1B,2013-09-01 21:19:00,
2013-09-01 14:20:00,103.3,57.8,29.26,SW,214,5.9,7.9,22,-99.99,,,0.00,0,rob ver 1B,2013-09-01 21:20:00,
2013-09-01 14:21:00,102.8,55.6,29.26,SSE,166,8.6,13.2,21,-99.99,,,0.00,0,rob ver 1A,2013-09-01 21:21:00,
2013-09-01 14:22:00,103.2,58.0,29.23,SW,222,4.1,6.5,22,-99.99,,,0.00,0,rob ver 1B,2013-09-01 21:22:00,
2013-09-01 14:23:00,103.4,57.8,29.23,WSW,245,2.9,4.1,22,-99.99,,,0.00,0,rob ver 1B,2013-09-01 21:23:00,
2013-09-01 14:24:00,103.6,57.9,29.23,WNW,288,3.4,5.7,22,-99.99,,,0.00,0,rob ver 1B,2013-09-01 21:24:00,
2013-09-01 14:25:00,103.5,58.0,29.23,WNW,286,4.3,5.8,22,-99.99,,,0.00,0,rob ver 1B,2013-09-01 21:25:00,
2013-09-01 14:26:00,101.6,55.8,29.26,ENE,76,4.1,5.5,22,-99.99,,,0.00,0,rob ver 1A,2013-09-01 21:26:00,
2013-09-01 14:27:00,103.6,58.1,29.23,South,173,5.8,10.9,22,-99.99,,,0.00,0,rob ver 1B,2013-09-01 21:27:00,
2013-09-01 14:28:00,103.8,58.2,29.23,SE,134,8.3,12.0,22,-99.99,,,0.00,0,rob ver 1B,2013-09-01 21:28:00,
2013-09-01 14:29:00,103.6,58.4,29.23,SE,137,8.4,11.7,23,-99.99,,,0.00,0,rob ver 1B,2013-09-01 21:29:00,
2013-09-01 14:30:00,103.8,58.3,29.23,SE,145,10.9,16.9,22,-99.99,,,0.00,0,rob ver 1B,2013-09-01 21:30:00,
2013-09-01 14:31:00,102.4,55.2,29.26,SSE,149,11.5,15.8,21,-99.99,,,0.00,0,rob ver 1A,2013-09-01 21:31:00,
2013-09-01 14:32:00,103.4,59.3,29.23,SSE,163,10.5,15.3,23,-99.99,,,0.00,0,rob ver 1B,2013-09-01 21:32:00,
2013-09-01 14:33:00,103.2,59.0,29.23,SSE,157,10.2,14.2,23,-99.99,,,0.00,0,rob ver 1B,2013-09-01 21:33:00,
2013-09-01 14:34:00,102.9,58.9,29.23,South,169,8.6,14.0,23,-99.99,,,0.00,0,rob ver 1B,2013-09-01 21:34:00,
2013-09-01 14:35:00,102.8,58.5,29.23,North,8,3.4,12.3,23,-99.99,,,0.00,0,rob ver 1B,2013-09-01 21:35:00,
2013-09-01 14:36:00,102.3,55.3,29.26,South,178,7.7,9.8,21,-99.99,,,0.00,0,rob ver 1A,2013-09-01 21:36:00,
2013-09-01 14:37:00,102.9,58.3,29.23,WNW,292,3.0,5.6,23,-99.99,,,0.00,0,rob ver 1B,2013-09-01 21:37:00,
2013-09-01 14:38:00,103.2,58.3,29.23,NW,310,5.7,7.0,23,-99.99,,,0.00,0,rob ver 1B,2013-09-01 21:38:00,
2013-09-01 14:39:00,103.3,58.4,29.23,SW,214,5.8,11.0,22,-99.99,,,0.00,0,rob ver 1B,2013-09-01 21:39:00,
2013-09-01 14:40:00,103.5,58.4,29.23,South,173,5.4,7.4,22,-99.99,,,0.00,0,rob ver 1B,2013-09-01 21:40:00,
2013-09-01 14:41:00,103.2,55.0,29.26,SSW,195,9.5,12.4,20,-99.99,,,0.00,0,rob ver 1A,2013-09-01 21:41:00,
2013-09-01 14:42:00,103.4,58.5,29.23,ESE,119,3.7,7.9,23,-99.99,,,0.00,0,rob ver 1B,2013-09-01 21:42:00,
2013-09-01 14:43:00,103.3,58.7,29.23,ESE,104,3.7,5.3,23,-99.99,,,0.00,0,rob ver 1B,2013-09-01 21:43:00,
2013-09-01 14:44:00,103.1,58.9,29.23,SW,216,5.8,9.3,23,-99.99,,,0.00,0,rob ver 1B,2013-09-01 21:44:00,
2013-09-01 14:45:00,103.5,59.3,29.23,South,189,5.9,9.6,23,-99.99,,,0.00,0,rob ver 1B,2013-09-01 21:45:00,
2013-09-01 14:46:00,102.5,55.0,29.26,South,190,7.0,10.2,20,-99.99,,,0.00,0,rob ver 1A,2013-09-01 21:46:00,
2013-09-01 14:47:00,104.2,59.4,29.23,SSW,200,8.9,12.5,23,-99.99,,,0.00,0,rob ver 1B,2013-09-01 21:47:00,
2013-09-01 14:48:00,104.3,59.3,29.23,South,189,11.0,15.8,22,-99.99,,,0.00,0,rob ver 1B,2013-09-01 21:48:00,
2013-09-01 14:49:00,104.0,59.0,29.23,South,176,11.0,13.9,23,-99.99,,,0.00,0,rob ver 1B,2013-09-01 21:49:00,
2013-09-01 14:50:00,104.0,59.1,29.23,South,184,9.3,12.3,23,-99.99,,,0.00,0,rob ver 1B,2013-09-01 21:50:00,
2013-09-01 14:51:00,103.5,54.8,29.26,SSW,200,3.0,4.9,19,-99.99,,,0.00,0,rob ver 1A,2013-09-01 21:51:00,
2013-09-01 14:52:00,103.4,59.4,29.23,SE,140,6.4,10.4,24,-99.99,,,0.00,0,rob ver 1B,2013-09-01 21:52:00,
2013-09-01 14:53:00,103.4,59.4,29.23,SE,144,6.7,9.1,23,-99.99,,,0.00,0,rob ver 1B,2013-09-01 21:53:00,
2013-09-01 14:54:00,103.5,59.5,29.23,South,173,6.6,13.6,23,-99.99,,,0.00,0,rob ver 1B,2013-09-01 21:54:00,
2013-09-01 14:55:00,104.2,59.2,29.21,SSE,154,10.4,24.2,23,-99.99,,,0.00,0,rob ver 1B,2013-09-01 21:55:00,
2013-09-01 14:56:00,104.6,59.2,29.23,SSE,157,6.1,7.7,22,-99.99,,,0.00,0,rob ver 1B,2013-09-01 21:56:00,
2013-09-01 14:57:00,103.7,54.4,29.26,SSW,195,11.5,16.2,19,-99.99,,,0.00,0,rob ver 1A,2013-09-01 21:57:00,
2013-09-01 14:58:00,105.0,59.2,29.23,SSE,166,7.8,11.3,22,-99.99,,,0.00,0,rob ver 1B,2013-09-01 21:58:00,
2013-09-01 14:59:00,104.7,59.4,29.21,South,180,8.9,14.3,23,-99.99,,,0.00,0,rob ver 1B,2013-09-01 21:59:00,
2013-09-01 15:00:00,104.8,59.3,29.21,South,175,13.9,19.4,22,-99.99,,,0.00,0,rob ver 1B,2013-09-01 22:00:00,
2013-09-01 15:01:00,104.6,59.3,29.23,South,170,10.8,15.5,23,-99.99,,,0.00,0,rob ver 1B,2013-09-01 22:01:00,
2013-09-01 15:02:00,102.9,54.5,29.26,SE,140,8.8,11.3,20,-99.99,,,0.00,0,rob ver 1A,2013-09-01 22:02:00,
2013-09-01 15:03:00,104.1,59.3,29.23,SSW,193,9.0,12.3,23,-99.99,,,0.00,0,rob ver 1B,2013-09-01 22:03:00,
2013-09-01 15:04:00,104.2,59.2,29.21,SW,214,11.9,16.2,23,-99.99,,,0.00,0,rob ver 1B,2013-09-01 22:04:00,
2013-09-01 15:05:00,104.3,59.2,29.21,SSW,212,10.4,13.2,23,-99.99,,,0.00,0,rob ver 1B,2013-09-01 22:05:00,
2013-09-01 15:06:00,104.0,59.1,29.21,SW,236,9.5,13.9,23,-99.99,,,0.00,0,rob ver 1B,2013-09-01 22:06:00,
2013-09-01 15:07:00,102.7,54.4,29.26,SSE,147,9.7,12.1,20,-99.99,,,0.00,0,rob ver 1A,2013-09-01 22:07:00,
2013-09-01 15:08:00,102.9,59.3,29.21,West,265,5.4,7.5,24,-99.99,,,0.00,0,rob ver 1B,2013-09-01 22:08:00,
2013-09-01 15:09:00,102.9,59.1,29.21,WSW,240,9.0,12.5,23,-99.99,,,0.00,0,rob ver 1B,2013-09-01 22:09:00,
2013-09-01 15:10:00,103.2,58.9,29.21,SSW,199,7.4,10.3,23,-99.99,,,0.00,0,rob ver 1B,2013-09-01 22:10:00,
2013-09-01 15:11:00,103.5,58.9,29.21,SW,216,10.9,15.9,23,-99.99,,,0.00,0,rob ver 1B,2013-09-01 22:11:00,
2013-09-01 15:12:00,103.0,54.8,29.23,SW,221,7.3,10.9,20,-99.99,,,0.00,0,rob ver 1A,2013-09-01 22:12:00,
2013-09-01 15:13:00,103.7,59.2,29.21,SSW,206,9.5,14.4,23,-99.99,,,0.00,0,rob ver 1B,2013-09-01 22:13:00,
2013-09-01 15:14:00,103.5,59.3,29.21,SSW,211,6.3,9.5,23,-99.99,,,0.00,0,rob ver 1B,2013-09-01 22:14:00,
2013-09-01 15:15:00,103.6,59.3,29.21,SSW,211,8.5,13.5,23,-99.99,,,0.00,0,rob ver 1B,2013-09-01 22:15:00,
2013-09-01 15:16:00,103.5,59.2,29.21,SW,232,7.3,10.8,23,-99.99,,,0.00,0,rob ver 1B,2013-09-01 22:16:00,
2013-09-01 15:17:00,103.8,54.3,29.23,SW,217,10.7,15.6,19,-99.99,,,0.00,0,rob ver 1A,2013-09-01 22:17:00,
2013-09-01 15:18:00,103.1,59.1,29.21,South,183,10.3,16.2,23,-99.99,,,0.00,0,rob ver 1B,2013-09-01 22:18:00,
2013-09-01 15:19:00,103.0,58.9,29.21,South,185,10.2,13.8,23,-99.99,,,0.00,0,rob ver 1B,2013-09-01 22:19:00,
2013-09-01 15:20:00,103.0,58.8,29.21,South,180,7.3,10.6,23,-99.99,,,0.00,0,rob ver 1B,2013-09-01 22:20:00,
2013-09-01 15:21:00,103.1,58.7,29.21,South,183,7.6,11.8,23,-99.99,,,0.00,0,rob ver 1B,2013-09-01 22:21:00,
2013-09-01 15:22:00,103.8,54.3,29.23,SSE,161,14.5,21.4,19,-99.99,,,0.00,0,rob ver 1A,2013-09-01 22:22:00,
2013-09-01 15:23:00,103.4,58.8,29.21,SW,226,3.6,5.9,23,-99.99,,,0.00,0,rob ver 1B,2013-09-01 22:23:00,
2013-09-01 15:24:00,103.7,58.8,29.21,SW,230,1.7,3.4,22,-99.99,,,0.00,0,rob ver 1B,2013-09-01 22:24:00,
2013-09-01 15:25:00,104.0,58.7,29.21,WNW,298,3.0,5.1,22,-99.99,,,0.00,0,rob ver 1B,2013-09-01 22:25:00,
2013-09-01 15:26:00,104.2,58.9,29.21,SSW,203,2.9,7.3,22,-99.99,,,0.00,0,rob ver 1B,2013-09-01 22:26:00,
2013-09-01 15:27:00,103.9,54.4,29.23,SSW,194,11.8,16.0,19,-99.99,,,0.00,0,rob ver 1A,2013-09-01 22:27:00,
2013-09-01 15:28:00,104.2,58.0,29.21,South,171,10.1,11.8,22,-99.99,,,0.00,0,rob ver 1B,2013-09-01 22:28:00,
2013-09-01 15:29:00,104.1,58.0,29.21,SSE,166,5.4,7.3,22,-99.99,,,0.00,0,rob ver 1B,2013-09-01 22:29:00,
2013-09-01 15:30:00,104.1,58.2,29.21,South,180,8.2,13.3,22,-99.99,,,0.00,0,rob ver 1B,2013-09-01 22:30:00,
2013-09-01 15:31:00,104.3,58.0,29.21,South,187,8.7,11.6,22,-99.99,,,0.00,0,rob ver 1B,2013-09-01 22:31:00,
2013-09-01 15:32:00,103.8,54.7,29.23,SSW,194,4.9,7.2,19,-99.99,,,0.00,0,rob ver 1A,2013-09-01 22:32:00,
2013-09-01 15:33:00,104.4,58.2,29.21,SSW,206,6.2,8.8,22,-99.99,,,0.00,0,rob ver 1B,2013-09-01 22:33:00,
2013-09-01 15:34:00,104.3,58.3,29.21,SSE,154,6.1,9.6,22,-99.99,,,0.00,0,rob ver 1B,2013-09-01 22:34:00,
2013-09-01 15:35:00,104.1,58.6,29.21,SE,135,4.9,7.7,23,-99.99,,,0.00,0,rob ver 1B,2013-09-01 22:35:00,
2013-09-01 15:36:00,104.1,58.9,29.21,SSE,156,8.3,13.3,22,-99.99,,,0.00,0,rob ver 1B,2013-09-01 22:36:00,
2013-09-01 15:37:00,104.3,54.6,29.23,South,191,6.5,10.4,19,-99.99,,,0.00,0,rob ver 1A,2013-09-01 22:37:00,
2013-09-01 15:38:00,104.1,58.7,29.21,South,179,8.1,11.3,23,-99.99,,,0.00,0,rob ver 1B,2013-09-01 22:38:00,
2013-09-01 15:39:00,103.6,58.9,29.21,South,179,3.6,7.3,23,-99.99,,,0.00,0,rob ver 1B,2013-09-01 22:39:00,
2013-09-01 15:40:00,103.5,59.1,29.21,SSW,194,3.5,6.9,23,-99.99,,,0.00,0,rob ver 1B,2013-09-01 22:40:00,
2013-09-01 15:41:00,103.6,58.9,29.21,SW,233,7.6,10.0,23,-99.99,,,0.00,0,rob ver 1B,2013-09-01 22:41:00,
2013-09-01 15:42:00,104.2,54.4,29.23,SSW,210,6.9,8.7,19,-99.99,,,0.00,0,rob ver 1A,2013-09-01 22:42:00,
2013-09-01 15:43:00,103.9,59.0,29.21,South,191,7.8,12.1,23,-99.99,,,0.00,0,rob ver 1B,2013-09-01 22:43:00,
2013-09-01 15:44:00,104.1,59.2,29.21,SSE,148,5.7,7.2,22,-99.99,,,0.00,0,rob ver 1B,2013-09-01 22:44:00,
2013-09-01 15:45:00,104.1,59.2,29.21,SE,143,6.0,7.7,23,-99.99,,,0.00,0,rob ver 1B,2013-09-01 22:45:00,
2013-09-01 15:46:00,104.4,59.0,29.21,SSE,149,10.1,13.9,22,-99.99,,,0.00,0,rob ver 1B,2013-09-01 22:46:00,
2013-09-01 15:47:00,104.7,59.1,29.21,South,171,10.9,14.8,22,-99.99,,,0.00,0,rob ver 1B,2013-09-01 22:47:00,
2013-09-01 15:48:00,103.6,54.4,29.23,South,182,8.6,12.0,20,-99.99,,,0.00,0,rob ver 1A,2013-09-01 22:48:00,
2013-09-01 15:49:00,104.4,58.8,29.21,South,185,13.2,17.1,22,-99.99,,,0.00,0,rob ver 1B,2013-09-01 22:49:00,
2013-09-01 15:50:00,104.3,58.8,29.21,SSW,195,8.4,13.0,22,-99.99,,,0.00,0,rob ver 1B,2013-09-01 22:50:00,
2013-09-01 15:51:00,104.4,58.7,29.21,SSW,196,9.8,12.8,22,-99.99,,,0.00,0,rob ver 1B,2013-09-01 22:51:00,
2013-09-01 15:52:00,104.5,58.9,29.21,SSW,195,5.6,8.3,22,-99.99,,,0.00,0,rob ver 1B,2013-09-01 22:52:00,
2013-09-01 15:53:00,103.6,54.4,29.23,SSW,203,14.6,20.1,19,-99.99,,,0.00,0,rob ver 1A,2013-09-01 22:53:00,
2013-09-01 15:54:00,104.3,58.8,29.21,South,179,8.6,13.3,22,-99.99,,,0.00,0,rob ver 1B,2013-09-01 22:54:00,
2013-09-01 15:55:00,104.6,58.4,29.21,South,188,10.2,12.8,22,-99.99,,,0.00,0,rob ver 1B,2013-09-01 22:55:00,
2013-09-01 15:56:00,104.7,58.3,29.21,South,181,7.2,9.9,22,-99.99,,,0.00,0,rob ver 1B,2013-09-01 22:56:00,
2013-09-01 15:57:00,104.7,58.4,29.21,South,184,3.7,5.7,22,-99.99,,,0.00,0,rob ver 1B,2013-09-01 22:57:00,
2013-09-01 15:58:00,104.0,54.4,29.23,SSW,198,11.4,14.0,19,-99.99,,,0.00,0,rob ver 1A,2013-09-01 22:58:00,
2013-09-01 15:59:00,104.8,59.0,29.21,South,172,8.3,10.4,22,-99.99,,,0.00,0,rob ver 1B,2013-09-01 22:59:00,
2013-09-01 16:00:00,104.7,59.1,29.21,South,180,7.5,9.6,22,-99.99,,,0.00,0,rob ver 1B,2013-09-01 23:00:00,
2013-09-01 16:01:00,104.7,59.1,29.21,South,187,3.8,6.6,22,-99.99,,,0.00,0,rob ver 1B,2013-09-01 23:01:00,
2013-09-01 16:02:00,104.9,59.0,29.21,South,179,4.9,7.3,22,-99.99,,,0.00,0,rob ver 1B,2013-09-01 23:02:00,
2013-09-01 16:03:00,104.5,54.3,29.21,SSW,198,16.3,18.9,19,-99.99,,,0.00,0,rob ver 1A,2013-09-01 23:03:00,
2013-09-01 16:04:00,104.7,59.1,29.21,SSE,148,10.8,14.1,22,-99.99,,,0.00,0,rob ver 1B,2013-09-01 23:04:00,
2013-09-01 16:05:00,104.3,59.3,29.21,SSE,155,5.8,9.6,23,-99.99,,,0.00,0,rob ver 1B,2013-09-01 23:05:00,
2013-09-01 16:06:00,104.2,59.3,29.21,SSE,166,7.5,11.0,23,-99.99,,,0.00,0,rob ver 1B,2013-09-01 23:06:00,
2013-09-01 16:07:00,104.1,59.3,29.21,South,171,4.2,5.5,23,-99.99,,,0.00,0,rob ver 1B,2013-09-01 23:07:00,
2013-09-01 16:08:00,103.8,54.6,29.21,SSW,209,12.8,16.7,19,-99.99,,,0.00,0,rob ver 1A,2013-09-01 23:08:00,
2013-09-01 16:09:00,104.8,59.3,29.21,SSW,202,5.6,9.7,22,-99.99,,,0.00,0,rob ver 1B,2013-09-01 23:09:00,
2013-09-01 16:10:00,105.1,59.1,29.21,SSW,203,8.7,11.6,22,-99.99,,,0.00,0,rob ver 1B,2013-09-01 23:10:00,
2013-09-01 16:11:00,104.9,59.2,29.21,SW,216,6.5,8.9,22,-99.99,,,0.00,0,rob ver 1B,2013-09-01 23:11:00,
2013-09-01 16:12:00,104.9,59.3,29.21,SSW,209,10.2,16.7,22,-99.99,,,0.00,0,rob ver 1B,2013-09-01 23:12:00,
2013-09-01 16:13:00,103.2,54.5,29.23,South,178,8.9,11.1,20,-99.99,,,0.00,0,rob ver 1A,2013-09-01 23:13:00,
2013-09-01 16:14:00,104.8,59.5,29.21,SSW,198,8.2,15.0,22,-99.99,,,0.00,0,rob ver 1B,2013-09-01 23:14:00,
2013-09-01 16:15:00,105.0,59.3,29.21,SSW,204,16.2,20.3,22,-99.99,,,0.00,0,rob ver 1B,2013-09-01 23:15:00,
2013-09-01 16:16:00,105.0,59.3,29.21,SSW,203,15.1,18.5,22,-99.99,,,0.00,0,rob ver 1B,2013-09-01 23:16:00,
2013-09-01 16:17:00,104.8,59.4,29.21,SSW,203,11.9,17.0,23,-99.99,,,0.00,0,rob ver 1B,2013-09-01 23:17:00,
2013-09-01 16:18:00,103.9,54.1,29.21,SSW,205,13.2,17.1,19,-99.99,,,0.00,0,rob ver 1A,2013-09-01 23:18:00,
2013-09-01 16:19:00,104.5,59.3,29.21,SW,215,14.2,18.8,22,-99.99,,,0.00,0,rob ver 1B,2013-09-01 23:19:00,
2013-09-01 16:20:00,104.3,59.3,29.21,SW,231,15.0,18.4,23,-99.99,,,0.00,0,rob ver 1B,2013-09-01 23:20:00,
2013-09-01 16:21:00,103.8,59.4,29.21,WSW,246,11.0,13.5,23,-99.99,,,0.00,0,rob ver 1B,2013-09-01 23:21:00,
2013-09-01 16:22:00,103.6,59.4,29.21,SW,230,9.4,11.6,23,-99.99,,,0.00,0,rob ver 1B,2013-09-01 23:22:00,
2013-09-01 16:23:00,103.4,54.3,29.21,SSW,205,9.8,12.7,19,-99.99,,,0.00,0,rob ver 1A,2013-09-01 23:23:00,
2013-09-01 16:24:00,103.6,58.9,29.21,SW,225,8.8,12.3,23,-99.99,,,0.00,0,rob ver 1B,2013-09-01 23:24:00,
2013-09-01 16:25:00,103.4,59.2,29.21,SW,222,5.4,8.1,23,-99.99,,,0.00,0,rob ver 1B,2013-09-01 23:25:00,
2013-09-01 16:26:00,103.4,60.4,29.21,SSW,195,10.8,17.5,25,-99.99,,,0.00,0,rob ver 1B,2013-09-01 23:26:00,
2013-09-01 16:27:00,103.6,62.0,29.21,South,175,13.0,16.1,24,-99.99,,,0.00,0,rob ver 1B,2013-09-01 23:27:00,
2013-09-01 16:28:00,103.4,54.3,29.21,South,185,10.4,14.8,19,-99.99,,,0.00,0,rob ver 1A,2013-09-01 23:28:00,
2013-09-01 16:33:00,103.7,54.1,29.21,South,181,8.9,12.7,19,-99.99,,,0.00,0,rob ver 1A,2013-09-01 23:33:00,
2013-09-01 16:39:00,103.9,53.9,29.21,South,180,7.5,13.1,19,-99.99,,,0.00,0,rob ver 1A,2013-09-01 23:39:00,
2013-09-01 16:44:00,103.7,53.9,29.21,South,184,8.3,10.7,19,-99.99,,,0.00,0,rob ver 1A,2013-09-01 23:44:00,
2013-09-01 16:49:00,103.6,53.7,29.21,South,182,11.6,13.8,19,-99.99,,,0.00,0,rob ver 1A,2013-09-01 23:49:00,
2013-09-01 16:54:00,104.2,53.6,29.21,South,176,11.6,14.0,18,-99.99,,,0.00,0,rob ver 1A,2013-09-01 23:54:00,
2013-09-01 16:59:00,103.5,53.5,29.21,SSE,165,9.2,11.6,19,-99.99,,,0.00,0,rob ver 1A,2013-09-01 23:59:00,
2013-09-01 17:04:00,103.4,53.6,29.21,SSE,168,13.5,19.7,19,-99.99,,,0.00,0,rob ver 1A,2013-09-02 00:04:00,
2013-09-01 17:09:00,103.7,53.5,29.21,South,185,12.3,15.4,19,-99.99,,,0.00,0,rob ver 1A,2013-09-02 00:09:00,
2013-09-01 17:14:00,104.1,53.2,29.21,SSW,210,12.6,14.2,18,-99.99,,,0.00,0,rob ver 1A,2013-09-02 00:14:00,
2013-09-01 17:20:00,103.6,53.0,29.21,South,179,10.2,13.4,18,-99.99,,,0.00,0,rob ver 1A,2013-09-02 00:20:00,
2013-09-01 17:25:00,103.6,53.0,29.21,SSW,192,12.1,14.4,18,-99.99,,,0.00,0,rob ver 1A,2013-09-02 00:25:00,
2013-09-01 17:30:00,103.6,53.4,29.21,SSW,213,8.6,11.1,18,-99.99,,,0.00,0,rob ver 1A,2013-09-02 00:30:00,
2013-09-01 17:35:00,103.4,53.2,29.21,South,172,9.3,12.3,19,-99.99,,,0.00,0,rob ver 1A,2013-09-02 00:35:00,
2013-09-01 17:40:00,103.4,53.2,29.21,SSW,194,9.1,11.2,19,-99.99,,,0.00,0,rob ver 1A,2013-09-02 00:40:00,
2013-09-01 17:45:00,103.0,53.0,29.21,SW,218,9.2,12.5,19,-99.99,,,0.00,0,rob ver 1A,2013-09-02 00:45:00,
2013-09-01 17:50:00,103.0,53.5,29.21,South,181,9.6,13.2,19,-99.99,,,0.00,0,rob ver 1A,2013-09-02 00:50:00,
2013-09-01 17:55:00,102.8,53.7,29.21,South,182,13.1,15.6,19,-99.99,,,0.00,0,rob ver 1A,2013-09-02 00:55:00,
2013-09-01 18:00:00,102.6,54.0,29.21,South,174,13.5,15.8,20,-99.99,,,0.00,0,rob ver 1A,2013-09-02 01:00:00,
2013-09-01 18:05:00,102.6,53.5,29.21,South,180,12.8,15.2,19,-99.99,,,0.00,0,rob ver 1A,2013-09-02 01:05:00,
2013-09-01 18:10:00,102.5,53.9,29.21,South,185,13.2,15.0,20,-99.99,,,0.00,0,rob ver 1A,2013-09-02 01:10:00,
2013-09-01 18:16:00,102.1,53.8,29.23,South,173,9.6,12.8,20,-99.99,,,0.00,0,rob ver 1A,2013-09-02 01:16:00,
2013-09-01 18:21:00,102.1,53.7,29.23,South,182,10.8,13.2,20,-99.99,,,0.00,0,rob ver 1A,2013-09-02 01:21:00,
2013-09-01 18:26:00,102.0,53.7,29.23,South,173,10.8,12.5,20,-99.99,,,0.00,0,rob ver 1A,2013-09-02 01:26:00,
2013-09-01 18:31:00,101.7,54.0,29.23,South,186,11.2,13.4,20,-99.99,,,0.00,0,rob ver 1A,2013-09-02 01:31:00,
2013-09-01 18:36:00,101.4,54.1,29.23,South,180,11.4,13.9,20,-99.99,,,0.00,0,rob ver 1A,2013-09-02 01:36:00,
2013-09-01 18:41:00,101.2,53.8,29.23,South,177,11.1,13.4,20,-99.99,,,0.00,0,rob ver 1A,2013-09-02 01:41:00,
2013-09-01 18:46:00,101.2,53.9,29.23,South,190,10.7,12.8,20,-99.99,,,0.00,0,rob ver 1A,2013-09-02 01:46:00,
2013-09-01 18:51:00,100.8,54.0,29.23,South,184,9.8,12.3,21,-99.99,,,0.00,0,rob ver 1A,2013-09-02 01:51:00,
2013-09-01 18:56:00,100.6,54.0,29.23,SSW,193,10.8,13.0,21,-99.99,,,0.00,0,rob ver 1A,2013-09-02 01:56:00,
2013-09-01 19:01:00,100.3,54.1,29.23,South,185,9.2,11.3,21,-99.99,,,0.00,0,rob ver 1A,2013-09-02 02:01:00,
2013-09-01 19:07:00,100.1,54.7,29.23,South,181,10.5,13.6,22,-99.99,,,0.00,0,rob ver 1A,2013-09-02 02:07:00,
2013-09-01 19:12:00,99.9,55.0,29.23,SSW,193,8.8,11.2,22,-99.99,,,0.00,0,rob ver 1A,2013-09-02 02:12:00,
2013-09-01 19:17:00,99.6,55.3,29.23,South,186,9.0,11.3,23,-99.99,,,0.00,0,rob ver 1A,2013-09-02 02:17:00,
2013-09-01 19:23:00,99.5,55.4,29.23,South,185,8.6,10.9,23,-99.99,,,0.00,0,rob ver 1A,2013-09-02 02:23:00,
2013-09-01 19:28:00,99.3,55.3,29.23,SSW,193,6.9,8.7,23,-99.99,,,0.00,0,rob ver 1A,2013-09-02 02:28:00,
2013-09-01 19:33:00,99.2,55.2,29.23,South,187,7.6,9.9,23,-99.99,,,0.00,0,rob ver 1A,2013-09-02 02:33:00,
2013-09-01 19:39:00,99.0,55.2,29.23,South,188,7.1,9.1,23,-99.99,,,0.00,0,rob ver 1A,2013-09-02 02:39:00,
2013-09-01 19:44:00,98.9,55.0,29.23,SSW,192,6.7,8.6,23,-99.99,,,0.00,0,rob ver 1A,2013-09-02 02:44:00,
2013-09-01 19:50:00,98.7,55.0,29.23,SSW,192,7.3,9.4,23,-99.99,,,0.00,0,rob ver 1A,2013-09-02 02:50:00,
2013-09-01 19:55:00,98.7,54.9,29.23,SSW,195,7.0,8.1,23,-99.99,,,0.00,0,rob ver 1A,2013-09-02 02:55:00,
2013-09-01 20:00:00,98.5,55.0,29.23,South,190,6.5,8.4,23,-99.99,,,0.00,0,rob ver 1A,2013-09-02 03:00:00,
2013-09-01 20:05:00,98.3,55.2,29.23,SSW,193,7.9,9.6,23,-99.99,,,0.00,0,rob ver 1A,2013-09-02 03:05:00,
2013-09-01 20:10:00,98.1,55.3,29.23,South,187,6.8,8.2,24,-99.99,,,0.00,0,rob ver 1A,2013-09-02 03:10:00,
2013-09-01 20:15:00,98.0,55.4,29.23,South,189,7.1,8.6,24,-99.99,,,0.00,0,rob ver 1A,2013-09-02 03:15:00,
2013-09-01 20:20:00,97.9,55.3,29.23,South,186,5.7,7.4,24,-99.99,,,0.00,0,rob ver 1A,2013-09-02 03:20:00,
2013-09-01 20:25:00,97.8,55.3,29.23,South,189,4.7,6.0,24,-99.99,,,0.00,0,rob ver 1A,2013-09-02 03:25:00,
2013-09-01 20:30:00,97.5,55.3,29.23,South,182,4.5,5.8,24,-99.99,,,0.00,0,rob ver 1A,2013-09-02 03:30:00,
2013-09-01 20:35:00,97.4,55.4,29.23,South,181,4.1,4.7,24,-99.99,,,0.00,0,rob ver 1A,2013-09-02 03:35:00,
2013-09-01 20:40:00,97.1,55.4,29.23,South,175,4.0,5.2,24,-99.99,,,0.00,0,rob ver 1A,2013-09-02 03:40:00,
2013-09-01 20:46:00,97.1,55.4,29.23,South,174,4.0,4.6,24,-99.99,,,0.00,0,rob ver 1A,2013-09-02 03:46:00,
2013-09-01 20:51:00,96.9,55.4,29.26,South,185,4.1,5.0,25,-99.99,,,0.00,0,rob ver 1A,2013-09-02 03:51:00,
2013-09-01 20:56:00,96.6,55.3,29.26,South,186,4.6,5.4,25,-99.99,,,0.00,0,rob ver 1A,2013-09-02 03:56:00,
2013-09-01 21:01:00,96.4,55.3,29.26,South,180,4.4,4.9,25,-99.99,,,0.00,0,rob ver 1A,2013-09-02 04:01:00,
2013-09-01 21:02:00,96.4,55.3,29.26,South,180,4.3,5.1,25,-99.99,,,0.00,0,rob ver 1A,2013-09-02 04:02:00,
2013-09-01 21:07:00,96.3,55.3,29.26,South,179,4.3,4.7,25,-99.99,,,0.00,0,rob ver 1A,2013-09-02 04:07:00,
2013-09-01 21:10:00,96.2,55.3,29.26,South,180,4.2,5.1,25,-99.99,,,0.00,0,rob ver 1A,2013-09-02 04:10:00,
2013-09-01 21:12:00,96.1,55.3,29.26,South,181,4.1,4.9,25,-99.99,,,0.00,0,rob ver 1A,2013-09-02 04:12:00,
2013-09-01 21:16:00,96.0,55.3,29.26,South,180,4.0,5.0,25,-99.99,,,0.00,0,rob ver 1A,2013-09-02 04:16:00,
2013-09-01 21:21:00,95.8,55.3,29.26,South,186,3.8,4.3,25,-99.99,,,0.00,0,rob ver 1A,2013-09-02 04:21:00,
2013-09-01 21:26:00,95.6,55.3,29.26,South,189,3.7,4.3,25,-99.99,,,0.00,0,rob ver 1A,2013-09-02 04:26:00,
2013-09-01 21:31:00,95.5,55.4,29.26,SSW,193,3.2,4.2,26,-99.99,,,0.00,0,rob ver 1A,2013-09-02 04:31:00,
2013-09-01 21:36:00,95.4,55.4,29.26,SSW,205,3.3,3.8,26,-99.99,,,0.00,0,rob ver 1A,2013-09-02 04:36:00,
2013-09-01 21:41:00,95.3,55.5,29.26,SW,215,3.6,4.3,26,-99.99,,,0.00,0,rob ver 1A,2013-09-02 04:41:00,
2013-09-01 21:46:00,95.2,55.9,29.26,SSW,208,4.4,5.6,27,-99.99,,,0.00,0,rob ver 1A,2013-09-02 04:46:00,
2013-09-01 21:52:00,95.3,56.0,29.26,SSW,199,5.3,6.2,27,-99.99,,,0.00,0,rob ver 1A,2013-09-02 04:52:00,
2013-09-01 21:57:00,95.2,56.1,29.26,SSW,201,5.6,6.3,27,-99.99,,,0.00,0,rob ver 1A,2013-09-02 04:57:00,
2013-09-01 22:02:00,95.3,56.2,29.26,SSW,203,5.3,5.9,27,-99.99,,,0.00,0,rob ver 1A,2013-09-02 05:02:00,
2013-09-01 22:07:00,95.4,56.3,29.26,SSW,211,5.5,6.5,27,-99.99,,,0.00,0,rob ver 1A,2013-09-02 05:07:00,
2013-09-01 22:12:00,95.5,56.3,29.26,SSW,210,5.8,6.8,27,-99.99,,,0.00,0,rob ver 1A,2013-09-02 05:12:00,
2013-09-01 22:17:00,95.7,56.3,29.26,SSW,210,5.2,6.0,26,-99.99,,,0.00,0,rob ver 1A,2013-09-02 05:17:00,
2013-09-01 22:22:00,95.7,56.4,29.26,SSW,209,4.6,5.3,26,-99.99,,,0.00,0,rob ver 1A,2013-09-02 05:22:00,
2013-09-01 22:27:00,95.4,56.4,29.26,SSW,210,4.0,4.7,27,-99.99,,,0.00,0,rob ver 1A,2013-09-02 05:27:00,
2013-09-01 22:32:00,95.1,56.7,29.26,West,278,1.9,2.7,28,-99.99,,,0.00,0,rob ver 1A,2013-09-02 05:32:00,
2013-09-01 22:37:00,94.2,57.0,29.26,NNW,334,0.8,1.1,28,-99.99,,,0.00,0,rob ver 1A,2013-09-02 05:37:00,
2013-09-01 22:43:00,93.9,56.8,29.26,WNW,294,1.6,2.1,28,-99.99,,,0.00,0,rob ver 1A,2013-09-02 05:43:00,
2013-09-01 22:48:00,94.2,56.9,29.26,NW,314,1.9,2.5,28,-99.99,,,0.00,0,rob ver 1A,2013-09-02 05:48:00,
2013-09-01 22:53:00,94.2,56.6,29.26,West,272,1.7,2.2,28,-99.99,,,0.00,0,rob ver 1A,2013-09-02 05:53:00,
2013-09-01 22:58:00,94.0,56.8,29.26,SW,215,1.0,1.2,28,-99.99,,,0.00,0,rob ver 1A,2013-09-02 05:58:00,
2013-09-01 23:03:00,94.0,56.5,29.26,South,181,8.3,12.5,28,-99.99,,,0.00,0,rob ver 1A,2013-09-02 06:03:00,
2013-09-01 23:08:00,94.4,57.0,29.26,South,188,9.0,10.9,28,-99.99,,,0.00,0,rob ver 1A,2013-09-02 06:08:00,
2013-09-01 23:13:00,93.9,57.3,29.26,South,186,7.1,9.0,29,-99.99,,,0.00,0,rob ver 1A,2013-09-02 06:13:00,
2013-09-01 23:18:00,93.5,57.6,29.26,South,189,6.2,8.3,30,-99.99,,,0.00,0,rob ver 1A,2013-09-02 06:18:00,
2013-09-01 23:23:00,93.5,57.9,29.26,South,187,8.5,10.7,30,-99.99,,,0.00,0,rob ver 1A,2013-09-02 06:23:00,
2013-09-01 23:28:00,93.2,58.1,29.26,South,191,8.9,12.7,31,-99.99,,,0.00,0,rob ver 1A,2013-09-02 06:28:00,
2013-09-01 23:34:00,93.1,58.4,29.26,South,188,9.9,12.6,31,-99.99,,,0.00,0,rob ver 1A,2013-09-02 06:34:00,
2013-09-01 23:39:00,93.0,58.5,29.26,South,186,10.1,13.2,31,-99.99,,,0.00,0,rob ver 1A,2013-09-02 06:39:00,
2013-09-01 23:44:00,92.8,58.5,29.26,South,188,10.0,12.4,31,-99.99,,,0.00,0,rob ver 1A,2013-09-02 06:44:00,
2013-09-01 23:49:00,92.5,58.6,29.26,South,191,9.1,11.0,32,-99.99,,,0.00,0,rob ver 1A,2013-09-02 06:49:00,
2013-09-01 23:54:00,92.1,58.9,29.26,South,190,8.8,10.9,32,-99.99,,,0.00,0,rob ver 1A,2013-09-02 06:54:00,
2013-09-01 23:59:00,91.8,58.9,29.26,South,189,8.0,10.1,33,-99.99,,,0.00,0,rob ver 1A,2013-09-02 06:59:00,